Wetterdaten: Dienstag, 10.06.2014
Datum Zeit Temp. Aussen +5cm Feuchte Auss Luftdruck Regen Sonnenschein Regendauer UV Solar Windben
10.06.2014 00:00 18,7 C 16,7 C 89 % 1015,6 hPa 0,0 l/m 0 min 0 min 0,0 UV-I 0 W/m 20,9 km/h (4 Bft)
10.06.2014 00:02 18,6 C 16,7 C 89 % 1015,7 hPa 0,0 l/m 0 min 0 min 0,0 UV-I 0 W/m 25,1 km/h (4 Bft)
10.06.2014 00:06 18,5 C 16,7 C 89 % 1015,7 hPa 0,0 l/m 0 min 0 min 0,0 UV-I 0 W/m 20,9 km/h (4 Bft)
10.06.2014 00:08 18,4 C 16,1 C 89 % 1015,7 hPa 0,0 l/m 0 min 0 min 0,0 UV-I 0 W/m 14,6 km/h (3 Bft)
10.06.2014 00:10 18,3 C 16,1 C 90 % 1015,8 hPa 0,0 l/m 0 min 0 min 0,0 UV-I 0 W/m 14,6 km/h (3 Bft)
10.06.2014 00:12 18,3 C 16,1 C 90 % 1015,8 hPa 0,0 l/m 0 min 0 min 0,0 UV-I 0 W/m 8,4 km/h (2 Bft)
10.06.2014 00:14 18,3 C 16,1 C 90 % 1015,8 hPa 0,0 l/m 0 min 0 min 0,0 UV-I 0 W/m 10,5 km/h (2 Bft)
10.06.2014 00:16 18,2 C 16,1 C 90 % 1015,9 hPa 0,0 l/m 0 min 0 min 0,0 UV-I 0 W/m 18,8 km/h (3 Bft)
10.06.2014 00:18 18,2 C 16,1 C 91 % 1015,9 hPa 0,0 l/m 0 min 0 min 0,0 UV-I 0 W/m 18,8 km/h (3 Bft)
10.06.2014 00:20 18,1 C 16,1 C 91 % 1016,0 hPa 0,0 l/m 0 min 0 min 0,0 UV-I 0 W/m 12,6 km/h (3 Bft)
10.06.2014 00:22 18,1 C 16,1 C 91 % 1016,1 hPa 0,0 l/m 0 min 0 min 0,0 UV-I 0 W/m 0,0 km/h (0 Bft)
10.06.2014 00:24 18,1 C 16,1 C 91 % 1016,1 hPa 0,0 l/m 0 min 0 min 0,0 UV-I 0 W/m 10,5 km/h (2 Bft)
10.06.2014 00:26 18,0 C 16,1 C 91 % 1016,1 hPa 0,0 l/m 0 min 0 min 0,0 UV-I 0 W/m 8,4 km/h (2 Bft)
10.06.2014 00:28 17,9 C 16,1 C 91 % 1016,2 hPa 0,0 l/m 0 min 0 min 0,0 UV-I 0 W/m 12,6 km/h (3 Bft)
10.06.2014 00:30 17,9 C 16,1 C 92 % 1016,3 hPa 0,0 l/m 0 min 0 min 0,0 UV-I 0 W/m 10,5 km/h (2 Bft)
10.06.2014 00:32 17,9 C 16,1 C 92 % 1016,2 hPa 0,0 l/m 0 min 0 min 0,0 UV-I 0 W/m 16,7 km/h (3 Bft)
10.06.2014 00:34 17,8 C 16,1 C 92 % 1016,2 hPa 0,0 l/m 0 min 0 min 0,0 UV-I 0 W/m 14,6 km/h (3 Bft)
10.06.2014 00:36 17,8 C 16,1 C 92 % 1016,2 hPa 0,0 l/m 0 min 0 min 0,0 UV-I 0 W/m 8,4 km/h (2 Bft)
10.06.2014 00:38 17,8 C 16,1 C 93 % 1016,2 hPa 0,0 l/m 0 min 0 min 0,0 UV-I 0 W/m 12,6 km/h (3 Bft)
10.06.2014 00:40 17,8 C 16,1 C 93 % 1016,2 hPa 0,0 l/m 0 min 0 min 0,0 UV-I 0 W/m 14,6 km/h (3 Bft)
10.06.2014 00:42 17,8 C 16,1 C 93 % 1016,3 hPa 0,0 l/m 0 min 0 min 0,0 UV-I 0 W/m 2,1 km/h (1 Bft)
10.06.2014 00:44 17,8 C 16,1 C 93 % 1016,1 hPa 0,0 l/m 0 min 0 min 0,0 UV-I 0 W/m 10,5 km/h (2 Bft)
10.06.2014 00:46 17,8 C 16,1 C 93 % 1016,1 hPa 0,0 l/m 0 min 0 min 0,0 UV-I 0 W/m 8,4 km/h (2 Bft)
10.06.2014 00:48 17,8 C 16,1 C 93 % 1016,2 hPa 0,0 l/m 0 min 0 min 0,0 UV-I 0 W/m 6,3 km/h (2 Bft)
10.06.2014 00:50 17,8 C 16,1 C 93 % 1016,2 hPa 0,0 l/m 0 min 0 min 0,0 UV-I 0 W/m 8,4 km/h (2 Bft)
10.06.2014 00:52 17,7 C 16,1 C 93 % 1016,2 hPa 0,0 l/m 0 min 0 min 0,0 UV-I 0 W/m 8,4 km/h (2 Bft)
10.06.2014 00:54 17,8 C 16,1 C 93 % 1016,3 hPa 0,0 l/m 0 min 0 min 0,0 UV-I 0 W/m 8,4 km/h (2 Bft)
10.06.2014 00:56 17,7 C 16,1 C 93 % 1016,3 hPa 0,0 l/m 0 min 0 min 0,0 UV-I 0 W/m 0,0 km/h (0 Bft)
10.06.2014 00:58 17,8 C 16,1 C 93 % 1016,2 hPa 0,0 l/m 0 min 0 min 0,0 UV-I 0 W/m 8,4 km/h (2 Bft)
10.06.2014 01:00 17,7 C 16,1 C 93 % 1016,3 hPa 0,0 l/m 0 min 0 min 0,0 UV-I 0 W/m 6,3 km/h (2 Bft)
10.06.2014 01:02 17,8 C 16,1 C 93 % 1016,2 hPa 0,0 l/m 0 min 0 min 0,0 UV-I 0 W/m 4,2 km/h (1 Bft)
10.06.2014 01:06 17,8 C 16,1 C 93 % 1016,1 hPa 0,0 l/m 0 min 0 min 0,0 UV-I 0 W/m 8,4 km/h (2 Bft)
10.06.2014 01:08 17,7 C 16,1 C 93 % 1016,2 hPa 0,0 l/m 0 min 0 min 0,0 UV-I 0 W/m 8,4 km/h (2 Bft)
10.06.2014 01:10 17,7 C 16,1 C 93 % 1016,2 hPa 0,0 l/m 0 min 0 min 0,0 UV-I 0 W/m 10,5 km/h (2 Bft)
10.06.2014 01:12 17,7 C 16,1 C 93 % 1016,3 hPa 0,0 l/m 0 min 0 min 0,0 UV-I 0 W/m 12,6 km/h (3 Bft)
10.06.2014 01:14 17,7 C 16,1 C 93 % 1016,3 hPa 0,0 l/m 0 min 0 min 0,0 UV-I 0 W/m 0,0 km/h (0 Bft)
10.06.2014 01:16 17,7 C 16,1 C 94 % 1016,3 hPa 0,0 l/m 0 min 0 min 0,0 UV-I 0 W/m 0,0 km/h (0 Bft)
10.06.2014 01:18 17,7 C 16,1 C 94 % 1016,3 hPa 0,0 l/m 0 min 0 min 0,0 UV-I 0 W/m 0,0 km/h (0 Bft)
10.06.2014 01:20 17,7 C 16,1 C 94 % 1016,3 hPa 0,0 l/m 0 min 0 min 0,0 UV-I 0 W/m 2,1 km/h (1 Bft)
10.06.2014 01:22 17,7 C 16,1 C 94 % 1016,2 hPa 0,0 l/m 0 min 0 min 0,0 UV-I 0 W/m 6,3 km/h (2 Bft)
10.06.2014 01:24 17,6 C 16,1 C 94 % 1016,1 hPa 0,0 l/m 0 min 0 min 0,0 UV-I 0 W/m 6,3 km/h (2 Bft)
10.06.2014 01:26 17,6 C 16,1 C 94 % 1016,2 hPa 0,0 l/m 0 min 0 min 0,0 UV-I 0 W/m 6,3 km/h (2 Bft)
10.06.2014 01:28 17,6 C 16,1 C 94 % 1016,2 hPa 0,0 l/m 0 min 0 min 0,0 UV-I 0 W/m 8,4 km/h (2 Bft)
10.06.2014 01:30 17,6 C 16,1 C 94 % 1016,2 hPa 0,0 l/m 0 min 0 min 0,0 UV-I 0 W/m 0,0 km/h (0 Bft)
10.06.2014 01:32 17,6 C 15,6 C 94 % 1016,1 hPa 0,0 l/m 0 min 0 min 0,0 UV-I 0 W/m 0,0 km/h (0 Bft)
10.06.2014 01:34 17,5 C 15,6 C 94 % 1016,2 hPa 0,0 l/m 0 min 0 min 0,0 UV-I 0 W/m 0,0 km/h (0 Bft)
10.06.2014 01:36 17,4 C 15,6 C 94 % 1016,2 hPa 0,0 l/m 0 min 0 min 0,0 UV-I 0 W/m 0,0 km/h (0 Bft)
10.06.2014 01:38 17,4 C 15,6 C 94 % 1016,2 hPa 0,0 l/m 0 min 0 min 0,0 UV-I 0 W/m 0,0 km/h (0 Bft)
10.06.2014 01:40 17,4 C 15,6 C 94 % 1016,0 hPa 0,0 l/m 0 min 0 min 0,0 UV-I 0 W/m 0,0 km/h (0 Bft)
10.06.2014 01:42 17,4 C 15,6 C 95 % 1015,9 hPa 0,0 l/m 0 min 0 min 0,0 UV-I 0 W/m 0,0 km/h (0 Bft)
10.06.2014 01:44 17,3 C 15,6 C 95 % 1015,9 hPa 0,0 l/m 0 min 0 min 0,0 UV-I 0 W/m 0,0 km/h (0 Bft)
10.06.2014 01:46 17,3 C 15,0 C 95 % 1016,0 hPa 0,0 l/m 0 min 0 min 0,0 UV-I 0 W/m 0,0 km/h (0 Bft)
10.06.2014 01:48 17,2 C 15,0 C 95 % 1016,0 hPa 0,0 l/m 0 min 0 min 0,0 UV-I 0 W/m 0,0 km/h (0 Bft)
10.06.2014 01:50 17,2 C 15,0 C 95 % 1015,9 hPa 0,0 l/m 0 min 0 min 0,0 UV-I 0 W/m 0,0 km/h (0 Bft)
10.06.2014 01:52 17,2 C 15,0 C 95 % 1016,0 hPa 0,0 l/m 0 min 0 min 0,0 UV-I 0 W/m 0,0 km/h (0 Bft)
10.06.2014 01:54 17,1 C 15,0 C 95 % 1015,9 hPa 0,0 l/m 0 min 0 min 0,0 UV-I 0 W/m 0,0 km/h (0 Bft)
10.06.2014 01:56 17,1 C 15,0 C 95 % 1016,0 hPa 0,0 l/m 0 min 0 min 0,0 UV-I 0 W/m 0,0 km/h (0 Bft)
10.06.2014 01:58 17,1 C 15,0 C 95 % 1015,9 hPa 0,0 l/m 0 min 0 min 0,0 UV-I 0 W/m 0,0 km/h (0 Bft)
10.06.2014 02:00 17,0 C 15,0 C 95 % 1016,0 hPa 0,0 l/m 0 min 0 min 0,0 UV-I 0 W/m 0,0 km/h (0 Bft)
10.06.2014 02:02 16,9 C 15,0 C 96 % 1016,0 hPa 0,0 l/m 0 min 0 min 0,0 UV-I 0 W/m 0,0 km/h (0 Bft)
10.06.2014 02:06 16,9 C 15,0 C 96 % 1015,8 hPa 0,0 l/m 0 min 0 min 0,0 UV-I 0 W/m 0,0 km/h (0 Bft)
10.06.2014 02:08 16,9 C 15,0 C 96 % 1015,9 hPa 0,0 l/m 0 min 0 min 0,0 UV-I 0 W/m 0,0 km/h (0 Bft)
10.06.2014 02:10 16,9 C 15,0 C 96 % 1016,0 hPa 0,0 l/m 0 min 0 min 0,0 UV-I 0 W/m 0,0 km/h (0 Bft)
10.06.2014 02:12 16,8 C 15,0 C 96 % 1016,0 hPa 0,0 l/m 0 min 0 min 0,0 UV-I 0 W/m 0,0 km/h (0 Bft)
10.06.2014 02:14 16,8 C 15,0 C 96 % 1016,0 hPa 0,0 l/m 0 min 0 min 0,0 UV-I 0 W/m 0,0 km/h (0 Bft)
10.06.2014 02:16 16,8 C 15,0 C 96 % 1016,0 hPa 0,0 l/m 0 min 0 min 0,0 UV-I 0 W/m 0,0 km/h (0 Bft)
10.06.2014 02:18 16,8 C 15,0 C 96 % 1015,7 hPa 0,0 l/m 0 min 0 min 0,0 UV-I 0 W/m 0,0 km/h (0 Bft)
10.06.2014 02:20 16,8 C 15,0 C 96 % 1015,7 hPa 0,0 l/m 0 min 0 min 0,0 UV-I 0 W/m 0,0 km/h (0 Bft)
10.06.2014 02:22 16,8 C 15,0 C 96 % 1015,8 hPa 0,0 l/m 0 min 0 min 0,0 UV-I 0 W/m 2,1 km/h (1 Bft)
10.06.2014 02:24 16,8 C 15,0 C 96 % 1015,9 hPa 0,0 l/m 0 min 0 min 0,0 UV-I 0 W/m 6,3 km/h (2 Bft)
10.06.2014 02:26 16,7 C 15,0 C 96 % 1016,2 hPa 0,0 l/m 0 min 0 min 0,0 UV-I 0 W/m 2,1 km/h (1 Bft)
10.06.2014 02:28 16,7 C 15,0 C 97 % 1016,2 hPa 0,0 l/m 0 min 0 min 0,0 UV-I 0 W/m 0,0 km/h (0 Bft)
10.06.2014 02:30 16,7 C 15,0 C 97 % 1016,2 hPa 0,0 l/m 0 min 0 min 0,0 UV-I 0 W/m 0,0 km/h (0 Bft)
10.06.2014 02:32 16,6 C 15,0 C 97 % 1016,2 hPa 0,0 l/m 0 min 0 min 0,0 UV-I 0 W/m 0,0 km/h (0 Bft)
10.06.2014 02:34 16,6 C 15,0 C 97 % 1016,3 hPa 0,0 l/m 0 min 0 min 0,0 UV-I 0 W/m 0,0 km/h (0 Bft)
10.06.2014 02:36 16,6 C 15,0 C 97 % 1016,3 hPa 0,0 l/m 0 min 0 min 0,0 UV-I 0 W/m 0,0 km/h (0 Bft)
10.06.2014 02:38 16,6 C 15,0 C 97 % 1016,4 hPa 0,0 l/m 0 min 0 min 0,0 UV-I 0 W/m 0,0 km/h (0 Bft)
10.06.2014 02:40 16,6 C 15,0 C 97 % 1016,2 hPa 0,0 l/m 0 min 0 min 0,0 UV-I 0 W/m 0,0 km/h (0 Bft)
10.06.2014 02:42 16,6 C 15,0 C 97 % 1016,1 hPa 0,0 l/m 0 min 0 min 0,0 UV-I 0 W/m 0,0 km/h (0 Bft)
10.06.2014 02:44 16,5 C 15,0 C 97 % 1015,9 hPa 0,0 l/m 0 min 0 min 0,0 UV-I 0 W/m 0,0 km/h (0 Bft)
10.06.2014 02:46 16,6 C 15,0 C 97 % 1015,7 hPa 0,0 l/m 0 min 0 min 0,0 UV-I 0 W/m 0,0 km/h (0 Bft)
10.06.2014 02:48 16,6 C 15,0 C 97 % 1015,6 hPa 0,0 l/m 0 min 0 min 0,0 UV-I 0 W/m 0,0 km/h (0 Bft)
10.06.2014 02:50 16,6 C 15,0 C 97 % 1015,6 hPa 0,0 l/m 0 min 0 min 0,0 UV-I 0 W/m 0,0 km/h (0 Bft)
10.06.2014 02:52 16,5 C 15,0 C 97 % 1015,6 hPa 0,0 l/m 0 min 0 min 0,0 UV-I 0 W/m 0,0 km/h (0 Bft)
10.06.2014 02:54 16,4 C 15,0 C 97 % 1015,5 hPa 0,0 l/m 0 min 0 min 0,0 UV-I 0 W/m 0,0 km/h (0 Bft)
10.06.2014 02:56 16,4 C 14,4 C 97 % 1015,5 hPa 0,0 l/m 0 min 0 min 0,0 UV-I 0 W/m 0,0 km/h (0 Bft)
10.06.2014 02:58 16,4 C 15,0 C 97 % 1015,4 hPa 0,0 l/m 0 min 0 min 0,0 UV-I 0 W/m 2,1 km/h (1 Bft)
10.06.2014 03:00 16,4 C 15,0 C 97 % 1015,4 hPa 0,0 l/m 0 min 0 min 0,0 UV-I 0 W/m 0,0 km/h (0 Bft)
10.06.2014 03:02 16,4 C 15,0 C 97 % 1015,4 hPa 0,0 l/m 0 min 0 min 0,0 UV-I 0 W/m 0,0 km/h (0 Bft)
10.06.2014 03:06 16,4 C 15,0 C 97 % 1015,4 hPa 0,0 l/m 0 min 0 min 0,0 UV-I 0 W/m 0,0 km/h (0 Bft)
10.06.2014 03:08 16,4 C 15,0 C 97 % 1015,4 hPa 0,0 l/m 0 min 0 min 0,0 UV-I 0 W/m 0,0 km/h (0 Bft)
10.06.2014 03:10 16,3 C 15,0 C 97 % 1015,4 hPa 0,0 l/m 0 min 0 min 0,0 UV-I 0 W/m 2,1 km/h (1 Bft)
10.06.2014 03:12 16,3 C 15,0 C 97 % 1015,2 hPa 0,0 l/m 0 min 0 min 0,0 UV-I 0 W/m 0,0 km/h (0 Bft)
10.06.2014 03:14 16,2 C 15,0 C 98 % 1015,1 hPa 0,0 l/m 0 min 0 min 0,0 UV-I 0 W/m 0,0 km/h (0 Bft)
10.06.2014 03:16 16,2 C 15,0 C 97 % 1015,1 hPa 0,0 l/m 0 min 0 min 0,0 UV-I 0 W/m 0,0 km/h (0 Bft)
10.06.2014 03:18 16,2 C 15,0 C 97 % 1015,1 hPa 0,0 l/m 0 min 0 min 0,0 UV-I 0 W/m 0,0 km/h (0 Bft)
10.06.2014 03:20 16,2 C 15,0 C 97 % 1015,2 hPa 0,0 l/m 0 min 0 min 0,0 UV-I 0 W/m 2,1 km/h (1 Bft)
10.06.2014 03:22 16,2 C 15,0 C 98 % 1015,2 hPa 0,0 l/m 0 min 0 min 0,0 UV-I 0 W/m 0,0 km/h (0 Bft)
10.06.2014 03:24 16,2 C 15,0 C 97 % 1015,2 hPa 0,0 l/m 0 min 0 min 0,0 UV-I 0 W/m 0,0 km/h (0 Bft)
10.06.2014 03:26 16,2 C 15,0 C 98 % 1015,2 hPa 0,0 l/m 0 min 0 min 0,0 UV-I 0 W/m 0,0 km/h (0 Bft)
10.06.2014 03:28 16,2 C 15,0 C 98 % 1015,2 hPa 0,0 l/m 0 min 0 min 0,0 UV-I 0 W/m 0,0 km/h (0 Bft)
10.06.2014 03:30 16,2 C 15,0 C 98 % 1015,1 hPa 0,0 l/m 0 min 0 min 0,0 UV-I 0 W/m 0,0 km/h (0 Bft)
10.06.2014 03:32 16,1 C 14,4 C 98 % 1015,1 hPa 0,0 l/m 0 min 0 min 0,0 UV-I 0 W/m 2,1 km/h (1 Bft)
10.06.2014 03:34 16,1 C 14,4 C 98 % 1015,0 hPa 0,0 l/m 0 min 0 min 0,0 UV-I 0 W/m 0,0 km/h (0 Bft)
10.06.2014 03:36 16,1 C 14,4 C 98 % 1014,9 hPa 0,0 l/m 0 min 0 min 0,0 UV-I 0 W/m 0,0 km/h (0 Bft)
10.06.2014 03:38 16,1 C 14,4 C 98 % 1014,8 hPa 0,0 l/m 0 min 0 min 0,0 UV-I 0 W/m 0,0 km/h (0 Bft)
10.06.2014 03:40 16,1 C 14,4 C 98 % 1014,8 hPa 0,0 l/m 0 min 0 min 0,0 UV-I 0 W/m 0,0 km/h (0 Bft)
10.06.2014 03:42 16,1 C 14,4 C 98 % 1014,8 hPa 0,0 l/m 0 min 0 min 0,0 UV-I 0 W/m 2,1 km/h (1 Bft)
10.06.2014 03:44 16,1 C 14,4 C 98 % 1014,8 hPa 0,0 l/m 0 min 0 min 0,0 UV-I 0 W/m 0,0 km/h (0 Bft)
10.06.2014 03:46 16,1 C 14,4 C 98 % 1014,6 hPa 0,0 l/m 0 min 0 min 0,0 UV-I 0 W/m 0,0 km/h (0 Bft)
10.06.2014 03:48 16,1 C 14,4 C 98 % 1014,6 hPa 0,0 l/m 0 min 0 min 0,0 UV-I 0 W/m 0,0 km/h (0 Bft)
10.06.2014 03:50 16,1 C 14,4 C 98 % 1014,5 hPa 0,0 l/m 0 min 0 min 0,0 UV-I 0 W/m 0,0 km/h (0 Bft)
10.06.2014 03:52 16,1 C 14,4 C 98 % 1014,5 hPa 0,0 l/m 0 min 0 min 0,0 UV-I 0 W/m 0,0 km/h (0 Bft)
10.06.2014 03:54 16,1 C 15,0 C 98 % 1014,5 hPa 0,0 l/m 0 min 0 min 0,0 UV-I 0 W/m 2,1 km/h (1 Bft)
10.06.2014 03:56 16,1 C 14,4 C 98 % 1014,6 hPa 0,0 l/m 0 min 0 min 0,0 UV-I 0 W/m 0,0 km/h (0 Bft)
10.06.2014 03:58 16,1 C 15,0 C 98 % 1014,6 hPa 0,0 l/m 0 min 0 min 0,0 UV-I 0 W/m 2,1 km/h (1 Bft)
10.06.2014 04:00 16,2 C 15,0 C 98 % 1014,7 hPa 0,0 l/m 0 min 0 min 0,0 UV-I 0 W/m 0,0 km/h (0 Bft)
10.06.2014 04:05 16,2 C 15,0 C 98 % 1014,9 hPa 0,0 l/m 0 min 0 min 0,0 UV-I 0 W/m 0,0 km/h (0 Bft)
10.06.2014 04:06 16,2 C 15,0 C 98 % 1014,8 hPa 0,0 l/m 0 min 0 min 0,0 UV-I 0 W/m 0,0 km/h (0 Bft)
10.06.2014 04:08 16,2 C 15,0 C 98 % 1014,9 hPa 0,0 l/m 0 min 0 min 0,0 UV-I 0 W/m 0,0 km/h (0 Bft)
10.06.2014 04:10 16,2 C 15,0 C 98 % 1015,0 hPa 0,0 l/m 0 min 0 min 0,0 UV-I 0 W/m 2,1 km/h (1 Bft)
10.06.2014 04:12 16,2 C 15,0 C 98 % 1015,0 hPa 0,0 l/m 0 min 0 min 0,0 UV-I 0 W/m 6,3 km/h (2 Bft)
10.06.2014 04:14 16,2 C 15,0 C 98 % 1015,0 hPa 0,0 l/m 0 min 0 min 0,0 UV-I 0 W/m 6,3 km/h (2 Bft)
10.06.2014 04:16 16,2 C 15,0 C 98 % 1015,1 hPa 0,0 l/m 0 min 0 min 0,0 UV-I 0 W/m 10,5 km/h (2 Bft)
10.06.2014 04:18 16,2 C 15,0 C 98 % 1015,0 hPa 0,0 l/m 0 min 0 min 0,0 UV-I 0 W/m 10,5 km/h (2 Bft)
10.06.2014 04:20 16,2 C 15,0 C 98 % 1014,9 hPa 0,0 l/m 0 min 0 min 0,0 UV-I 0 W/m 8,4 km/h (2 Bft)
10.06.2014 04:22 16,2 C 15,0 C 98 % 1014,9 hPa 0,0 l/m 0 min 0 min 0,0 UV-I 0 W/m 6,3 km/h (2 Bft)
10.06.2014 04:24 16,2 C 15,0 C 98 % 1014,8 hPa 0,0 l/m 0 min 0 min 0,0 UV-I 0 W/m 10,5 km/h (2 Bft)
10.06.2014 04:26 16,3 C 15,0 C 98 % 1014,8 hPa 0,0 l/m 0 min 0 min 0,0 UV-I 0 W/m 8,4 km/h (2 Bft)
10.06.2014 04:28 16,3 C 15,0 C 98 % 1014,8 hPa 0,0 l/m 0 min 0 min 0,0 UV-I 0 W/m 12,6 km/h (3 Bft)
10.06.2014 04:30 16,3 C 15,0 C 98 % 1014,9 hPa 0,0 l/m 0 min 0 min 0,0 UV-I 0 W/m 12,6 km/h (3 Bft)
10.06.2014 04:32 16,3 C 15,0 C 98 % 1015,0 hPa 0,0 l/m 0 min 0 min 0,0 UV-I 0 W/m 8,4 km/h (2 Bft)
10.06.2014 04:34 16,4 C 15,0 C 98 % 1015,1 hPa 0,0 l/m 0 min 0 min 0,0 UV-I 0 W/m 12,6 km/h (3 Bft)
10.06.2014 04:36 16,4 C 15,0 C 98 % 1015,2 hPa 0,0 l/m 0 min 0 min 0,0 UV-I 0 W/m 10,5 km/h (2 Bft)
10.06.2014 04:38 16,4 C 15,0 C 98 % 1015,1 hPa 0,0 l/m 0 min 0 min 0,0 UV-I 0 W/m 8,4 km/h (2 Bft)
10.06.2014 04:40 16,4 C 15,0 C 98 % 1015,1 hPa 0,0 l/m 0 min 0 min 0,0 UV-I 0 W/m 0,0 km/h (0 Bft)
10.06.2014 04:42 16,4 C 15,0 C 98 % 1015,1 hPa 0,0 l/m 0 min 0 min 0,0 UV-I 0 W/m 0,0 km/h (0 Bft)
10.06.2014 04:44 16,4 C 15,0 C 98 % 1015,2 hPa 0,0 l/m 0 min 0 min 0,0 UV-I 0 W/m 0,0 km/h (0 Bft)
10.06.2014 04:46 16,4 C 15,0 C 98 % 1015,4 hPa 0,0 l/m 0 min 2 min 0,0 UV-I 0 W/m 4,2 km/h (1 Bft)
10.06.2014 04:48 16,5 C 15,6 C 98 % 1015,6 hPa 0,0 l/m 0 min 0 min 0,0 UV-I 0 W/m 6,3 km/h (2 Bft)
10.06.2014 04:50 16,5 C 15,6 C 98 % 1016,4 hPa 0,0 l/m 0 min 0 min 0,0 UV-I 0 W/m 25,1 km/h (4 Bft)
10.06.2014 04:52 16,6 C 15,6 C 98 % 1017,4 hPa 0,0 l/m 0 min 0 min 0,0 UV-I 0 W/m 31,4 km/h (5 Bft)
10.06.2014 04:54 16,6 C 15,6 C 98 % 1017,1 hPa 0,0 l/m 0 min 2 min 0,0 UV-I 0 W/m 27,2 km/h (4 Bft)
10.06.2014 04:56 16,7 C 15,6 C 98 % 1016,5 hPa 0,0 l/m 0 min 2 min 0,0 UV-I 0 W/m 20,9 km/h (4 Bft)
10.06.2014 04:58 16,7 C 15,6 C 98 % 1016,1 hPa 0,0 l/m 0 min 2 min 0,0 UV-I 0 W/m 2,1 km/h (1 Bft)
10.06.2014 05:00 16,8 C 15,6 C 98 % 1016,8 hPa 0,0 l/m 0 min 2 min 0,0 UV-I 0 W/m 16,7 km/h (3 Bft)
10.06.2014 05:02 16,9 C 15,6 C 97 % 1017,6 hPa 0,0 l/m 0 min 2 min 0,0 UV-I 0 W/m 25,1 km/h (4 Bft)
10.06.2014 05:06 17,1 C 15,6 C 97 % 1018,2 hPa 0,2 l/m 0 min 2 min 0,0 UV-I 0 W/m 37,7 km/h (5 Bft)
10.06.2014 05:08 17,2 C 15,6 C 97 % 1017,8 hPa 0,2 l/m 0 min 2 min 0,0 UV-I 0 W/m 29,3 km/h (5 Bft)
10.06.2014 05:10 17,3 C 15,6 C 97 % 1017,9 hPa 0,6 l/m 0 min 2 min 0,0 UV-I 0 W/m 33,5 km/h (5 Bft)
10.06.2014 05:12 17,3 C 15,0 C 97 % 1018,0 hPa 0,2 l/m 0 min 2 min 0,0 UV-I 0 W/m 29,3 km/h (5 Bft)
10.06.2014 05:14 17,3 C 15,6 C 96 % 1018,2 hPa 0,2 l/m 0 min 2 min 0,0 UV-I 0 W/m 27,2 km/h (4 Bft)
10.06.2014 05:16 17,3 C 15,6 C 96 % 1018,4 hPa 0,2 l/m 0 min 2 min 0,0 UV-I 0 W/m 27,2 km/h (4 Bft)
10.06.2014 05:18 17,3 C 15,6 C 96 % 1018,6 hPa 0,0 l/m 0 min 2 min 0,0 UV-I 0 W/m 41,8 km/h (6 Bft)
10.06.2014 05:20 17,3 C 15,6 C 96 % 1018,9 hPa 0,0 l/m 0 min 2 min 0,0 UV-I 0 W/m 29,3 km/h (5 Bft)
10.06.2014 05:22 17,4 C 15,6 C 96 % 1019,1 hPa 0,0 l/m 0 min 2 min 0,0 UV-I 0 W/m 31,4 km/h (5 Bft)
10.06.2014 05:24 17,4 C 15,6 C 96 % 1019,2 hPa 0,0 l/m 0 min 0 min 0,0 UV-I 0 W/m 35,6 km/h (5 Bft)
10.06.2014 05:26 17,4 C 15,6 C 95 % 1019,0 hPa 0,0 l/m 0 min 2 min 0,0 UV-I 0 W/m 20,9 km/h (4 Bft)
10.06.2014 05:28 17,4 C 15,6 C 95 % 1018,9 hPa 0,0 l/m 0 min 2 min 0,0 UV-I 0 W/m 16,7 km/h (3 Bft)
10.06.2014 05:30 17,4 C 15,6 C 95 % 1018,9 hPa 0,0 l/m 0 min 2 min 0,0 UV-I 0 W/m 18,8 km/h (3 Bft)
10.06.2014 05:32 17,4 C 15,6 C 95 % 1018,9 hPa 1,2 l/m 0 min 2 min 0,0 UV-I 0 W/m 14,6 km/h (3 Bft)
10.06.2014 05:34 17,3 C 15,6 C 95 % 1018,3 hPa 1,0 l/m 0 min 2 min 0,0 UV-I 0 W/m 12,6 km/h (3 Bft)
10.06.2014 05:36 17,3 C 15,6 C 96 % 1018,5 hPa 0,6 l/m 0 min 2 min 0,0 UV-I 0 W/m 8,4 km/h (2 Bft)
10.06.2014 05:38 17,3 C 15,6 C 96 % 1018,5 hPa 0,2 l/m 0 min 2 min 0,0 UV-I 0 W/m 12,6 km/h (3 Bft)
10.06.2014 05:40 17,2 C 15,6 C 96 % 1017,8 hPa 0,0 l/m 0 min 2 min 0,0 UV-I 0 W/m 14,6 km/h (3 Bft)
10.06.2014 05:42 17,2 C 15,6 C 96 % 1018,0 hPa 0,0 l/m 0 min 2 min 0,0 UV-I 0 W/m 10,5 km/h (2 Bft)
10.06.2014 05:44 17,1 C 15,6 C 96 % 1017,9 hPa 0,0 l/m 0 min 2 min 0,0 UV-I 0 W/m 2,1 km/h (1 Bft)
10.06.2014 05:46 17,1 C 15,6 C 96 % 1017,6 hPa 0,2 l/m 0 min 2 min 0,0 UV-I 0 W/m 12,6 km/h (3 Bft)
10.06.2014 05:48 17,1 C 15,6 C 96 % 1017,6 hPa 0,0 l/m 0 min 2 min 0,0 UV-I 0 W/m 20,9 km/h (4 Bft)
10.06.2014 05:50 17,0 C 15,6 C 96 % 1017,5 hPa 0,0 l/m 0 min 0 min 0,0 UV-I 0 W/m 12,6 km/h (3 Bft)
10.06.2014 05:52 17,0 C 15,6 C 96 % 1017,4 hPa 0,0 l/m 0 min 0 min 0,0 UV-I 0 W/m 16,7 km/h (3 Bft)
10.06.2014 05:54 17,0 C 15,0 C 96 % 1017,4 hPa 0,0 l/m 0 min 0 min 0,0 UV-I 0 W/m 18,8 km/h (3 Bft)
10.06.2014 05:56 17,0 C 15,6 C 96 % 1017,3 hPa 0,0 l/m 0 min 0 min 0,0 UV-I 0 W/m 12,6 km/h (3 Bft)
10.06.2014 05:58 17,0 C 15,6 C 96 % 1017,1 hPa 0,0 l/m 0 min 0 min 0,0 UV-I 0 W/m 20,9 km/h (4 Bft)
10.06.2014 06:00 17,0 C 15,6 C 96 % 1017,1 hPa 0,0 l/m 0 min 0 min 0,0 UV-I 0 W/m 20,9 km/h (4 Bft)
10.06.2014 06:02 17,0 C 15,6 C 96 % 1017,1 hPa 0,0 l/m 0 min 0 min 0,0 UV-I 0 W/m 16,7 km/h (3 Bft)
10.06.2014 06:06 17,0 C 15,6 C 97 % 1017,1 hPa 0,0 l/m 0 min 0 min 0,0 UV-I 5 W/m 20,9 km/h (4 Bft)
10.06.2014 06:08 17,0 C 15,6 C 97 % 1017,2 hPa 0,0 l/m 0 min 0 min 0,0 UV-I 5 W/m 23,0 km/h (4 Bft)
10.06.2014 06:10 17,0 C 15,6 C 97 % 1017,1 hPa 0,0 l/m 0 min 0 min 0,0 UV-I 5 W/m 20,9 km/h (4 Bft)
10.06.2014 06:12 17,0 C 15,6 C 97 % 1017,2 hPa 0,0 l/m 0 min 0 min 0,0 UV-I 7 W/m 23,0 km/h (4 Bft)
10.06.2014 06:14 17,0 C 15,6 C 97 % 1017,3 hPa 0,0 l/m 0 min 0 min 0,0 UV-I 7 W/m 18,8 km/h (3 Bft)
10.06.2014 06:16 17,0 C 15,6 C 97 % 1017,2 hPa 0,0 l/m 0 min 0 min 0,0 UV-I 9 W/m 20,9 km/h (4 Bft)
10.06.2014 06:18 16,9 C 15,6 C 97 % 1017,1 hPa 0,0 l/m 0 min 0 min 0,0 UV-I 11 W/m 16,7 km/h (3 Bft)
10.06.2014 06:20 17,0 C 15,6 C 97 % 1017,2 hPa 0,0 l/m 0 min 0 min 0,0 UV-I 12 W/m 18,8 km/h (3 Bft)
10.06.2014 06:22 17,0 C 15,6 C 97 % 1017,1 hPa 0,0 l/m 0 min 0 min 0,0 UV-I 16 W/m 23,0 km/h (4 Bft)
10.06.2014 06:24 17,0 C 15,6 C 97 % 1017,0 hPa 0,0 l/m 0 min 0 min 0,0 UV-I 21 W/m 27,2 km/h (4 Bft)
10.06.2014 06:26 17,0 C 15,6 C 97 % 1017,0 hPa 0,0 l/m 0 min 0 min 0,0 UV-I 25 W/m 27,2 km/h (4 Bft)
10.06.2014 06:28 17,0 C 15,6 C 97 % 1016,9 hPa 0,0 l/m 0 min 0 min 0,0 UV-I 28 W/m 27,2 km/h (4 Bft)
10.06.2014 06:30 17,0 C 15,6 C 97 % 1016,8 hPa 0,0 l/m 0 min 0 min 0,0 UV-I 32 W/m 18,8 km/h (3 Bft)
10.06.2014 06:32 16,9 C 15,6 C 97 % 1016,8 hPa 0,0 l/m 0 min 0 min 0,0 UV-I 33 W/m 25,1 km/h (4 Bft)
10.06.2014 06:34 16,9 C 15,6 C 97 % 1016,8 hPa 0,0 l/m 0 min 0 min 0,0 UV-I 33 W/m 16,7 km/h (3 Bft)
10.06.2014 06:36 17,0 C 15,6 C 97 % 1016,8 hPa 0,0 l/m 0 min 0 min 0,0 UV-I 28 W/m 18,8 km/h (3 Bft)
10.06.2014 06:38 17,0 C 15,6 C 97 % 1017,0 hPa 0,0 l/m 0 min 0 min 0,0 UV-I 25 W/m 14,6 km/h (3 Bft)
10.06.2014 06:40 17,0 C 15,6 C 97 % 1017,0 hPa 0,0 l/m 0 min 0 min 0,0 UV-I 25 W/m 20,9 km/h (4 Bft)
10.06.2014 06:42 17,1 C 15,6 C 97 % 1017,2 hPa 0,0 l/m 0 min 0 min 0,0 UV-I 26 W/m 12,6 km/h (3 Bft)
10.06.2014 06:44 17,1 C 15,6 C 97 % 1017,2 hPa 0,0 l/m 0 min 0 min 0,0 UV-I 28 W/m 14,6 km/h (3 Bft)
10.06.2014 06:46 17,1 C 15,6 C 97 % 1017,1 hPa 0,0 l/m 0 min 0 min 0,0 UV-I 30 W/m 14,6 km/h (3 Bft)
10.06.2014 06:48 17,1 C 15,6 C 97 % 1017,1 hPa 0,0 l/m 0 min 0 min 0,0 UV-I 30 W/m 12,6 km/h (3 Bft)
10.06.2014 06:50 17,1 C 15,6 C 97 % 1017,1 hPa 0,0 l/m 0 min 0 min 0,0 UV-I 30 W/m 10,5 km/h (2 Bft)
10.06.2014 06:52 17,1 C 15,6 C 97 % 1017,1 hPa 0,0 l/m 0 min 0 min 0,0 UV-I 32 W/m 10,5 km/h (2 Bft)
10.06.2014 06:54 17,1 C 15,6 C 97 % 1017,2 hPa 0,0 l/m 0 min 0 min 0,0 UV-I 33 W/m 6,3 km/h (2 Bft)
10.06.2014 06:56 17,1 C 15,6 C 97 % 1017,3 hPa 0,0 l/m 0 min 0 min 0,0 UV-I 37 W/m 0,0 km/h (0 Bft)
10.06.2014 06:58 17,1 C 15,6 C 97 % 1017,4 hPa 0,0 l/m 0 min 0 min 0,0 UV-I 39 W/m 2,1 km/h (1 Bft)
10.06.2014 07:00 17,1 C 15,6 C 97 % 1017,5 hPa 0,0 l/m 0 min 0 min 0,0 UV-I 46 W/m 0,0 km/h (0 Bft)
10.06.2014 07:02 17,1 C 15,6 C 97 % 1017,5 hPa 0,0 l/m 0 min 0 min 0,0 UV-I 56 W/m 0,0 km/h (0 Bft)
10.06.2014 07:06 17,2 C 16,1 C 97 % 1017,4 hPa 0,0 l/m 0 min 0 min 0,0 UV-I 74 W/m 0,0 km/h (0 Bft)
10.06.2014 07:08 17,2 C 16,1 C 97 % 1017,2 hPa 0,0 l/m 0 min 0 min 0,0 UV-I 107 W/m 0,0 km/h (0 Bft)
10.06.2014 07:10 17,2 C 16,1 C 97 % 1017,2 hPa 0,0 l/m 2 min 0 min 0,0 UV-I 142 W/m 0,0 km/h (0 Bft)
10.06.2014 07:12 17,3 C 16,1 C 97 % 1017,1 hPa 0,0 l/m 2 min 0 min 0,0 UV-I 142 W/m 0,0 km/h (0 Bft)
10.06.2014 07:14 17,3 C 16,1 C 98 % 1017,2 hPa 0,0 l/m 2 min 0 min 0,0 UV-I 134 W/m 0,0 km/h (0 Bft)
10.06.2014 07:16 17,2 C 16,1 C 97 % 1017,1 hPa 0,0 l/m 0 min 0 min 0,0 UV-I 120 W/m 0,0 km/h (0 Bft)
10.06.2014 07:18 17,2 C 16,1 C 97 % 1017,0 hPa 0,0 l/m 0 min 0 min 0,0 UV-I 105 W/m 0,0 km/h (0 Bft)
10.06.2014 07:20 17,2 C 16,1 C 97 % 1017,0 hPa 0,0 l/m 0 min 0 min 0,0 UV-I 118 W/m 0,0 km/h (0 Bft)
10.06.2014 07:22 17,3 C 16,1 C 97 % 1016,8 hPa 0,0 l/m 0 min 0 min 0,0 UV-I 95 W/m 0,0 km/h (0 Bft)
10.06.2014 07:24 17,3 C 16,1 C 97 % 1016,7 hPa 0,0 l/m 0 min 0 min 0,0 UV-I 91 W/m 0,0 km/h (0 Bft)
10.06.2014 07:26 17,4 C 16,1 C 98 % 1016,7 hPa 0,0 l/m 2 min 0 min 0,0 UV-I 160 W/m 0,0 km/h (0 Bft)
10.06.2014 07:28 17,4 C 16,1 C 98 % 1017,0 hPa 0,0 l/m 2 min 0 min 0,0 UV-I 169 W/m 0,0 km/h (0 Bft)
10.06.2014 07:30 17,6 C 16,1 C 98 % 1017,1 hPa 0,0 l/m 2 min 0 min 0,0 UV-I 185 W/m 0,0 km/h (0 Bft)
10.06.2014 07:32 17,6 C 16,1 C 97 % 1017,1 hPa 0,0 l/m 2 min 0 min 0,0 UV-I 193 W/m 0,0 km/h (0 Bft)
10.06.2014 07:34 17,6 C 16,1 C 97 % 1017,1 hPa 0,0 l/m 2 min 0 min 0,0 UV-I 204 W/m 0,0 km/h (0 Bft)
10.06.2014 07:36 17,7 C 16,7 C 97 % 1017,1 hPa 0,0 l/m 2 min 0 min 0,0 UV-I 221 W/m 0,0 km/h (0 Bft)
10.06.2014 07:38 17,8 C 16,7 C 98 % 1017,1 hPa 0,0 l/m 2 min 0 min 0,0 UV-I 232 W/m 2,1 km/h (1 Bft)
10.06.2014 07:40 17,9 C 16,7 C 98 % 1017,1 hPa 0,0 l/m 0 min 0 min 0,0 UV-I 116 W/m 6,3 km/h (2 Bft)
10.06.2014 07:42 17,9 C 16,7 C 97 % 1017,1 hPa 0,0 l/m 0 min 0 min 0,0 UV-I 90 W/m 2,1 km/h (1 Bft)
10.06.2014 07:44 17,9 C 16,7 C 97 % 1017,3 hPa 0,0 l/m 0 min 0 min 0,0 UV-I 91 W/m 2,1 km/h (1 Bft)
10.06.2014 07:46 17,9 C 16,7 C 97 % 1017,3 hPa 0,0 l/m 0 min 0 min 0,0 UV-I 76 W/m 8,4 km/h (2 Bft)
10.06.2014 07:48 17,9 C 16,7 C 97 % 1017,3 hPa 0,0 l/m 0 min 0 min 0,0 UV-I 81 W/m 8,4 km/h (2 Bft)
10.06.2014 07:50 17,9 C 16,7 C 97 % 1017,2 hPa 0,0 l/m 0 min 0 min 0,0 UV-I 88 W/m 8,4 km/h (2 Bft)
10.06.2014 07:52 17,9 C 16,7 C 97 % 1017,3 hPa 0,0 l/m 0 min 0 min 0,0 UV-I 86 W/m 6,3 km/h (2 Bft)
10.06.2014 07:54 17,8 C 16,7 C 97 % 1017,3 hPa 0,0 l/m 0 min 0 min 0,0 UV-I 123 W/m 0,0 km/h (0 Bft)
10.06.2014 07:56 17,9 C 16,7 C 97 % 1017,3 hPa 0,0 l/m 0 min 0 min 0,0 UV-I 125 W/m 0,0 km/h (0 Bft)
10.06.2014 07:58 17,9 C 16,7 C 97 % 1017,3 hPa 0,0 l/m 2 min 0 min 0,0 UV-I 183 W/m 10,5 km/h (2 Bft)
10.06.2014 08:00 18,0 C 16,7 C 97 % 1017,2 hPa 0,0 l/m 2 min 0 min 0,0 UV-I 241 W/m 12,6 km/h (3 Bft)
10.06.2014 08:02 18,1 C 17,2 C 97 % 1017,2 hPa 0,0 l/m 2 min 0 min 0,0 UV-I 218 W/m 4,2 km/h (1 Bft)
10.06.2014 08:06 18,2 C 17,2 C 97 % 1017,2 hPa 0,0 l/m 0 min 0 min 0,0 UV-I 128 W/m 10,5 km/h (2 Bft)
10.06.2014 08:08 18,2 C 17,2 C 97 % 1017,1 hPa 0,0 l/m 0 min 0 min 0,0 UV-I 141 W/m 8,4 km/h (2 Bft)
10.06.2014 08:10 18,2 C 17,2 C 97 % 1017,1 hPa 0,0 l/m 0 min 0 min 0,0 UV-I 158 W/m 14,6 km/h (3 Bft)
10.06.2014 08:12 18,2 C 17,2 C 97 % 1017,0 hPa 0,0 l/m 0 min 0 min 0,0 UV-I 146 W/m 12,6 km/h (3 Bft)
10.06.2014 08:14 18,2 C 17,2 C 97 % 1017,0 hPa 0,0 l/m 0 min 0 min 0,0 UV-I 146 W/m 10,5 km/h (2 Bft)
10.06.2014 08:16 18,2 C 17,2 C 97 % 1017,0 hPa 0,0 l/m 0 min 0 min 0,0 UV-I 144 W/m 10,5 km/h (2 Bft)
10.06.2014 08:18 18,2 C 17,2 C 97 % 1017,0 hPa 0,0 l/m 0 min 0 min 0,0 UV-I 125 W/m 8,4 km/h (2 Bft)
10.06.2014 08:20 18,2 C 17,2 C 97 % 1017,2 hPa 0,0 l/m 0 min 0 min 0,0 UV-I 113 W/m 0,0 km/h (0 Bft)
10.06.2014 08:22 18,3 C 17,2 C 97 % 1017,3 hPa 0,0 l/m 0 min 0 min 0,0 UV-I 105 W/m 8,4 km/h (2 Bft)
10.06.2014 08:24 18,3 C 17,2 C 97 % 1017,3 hPa 0,0 l/m 0 min 0 min 0,0 UV-I 105 W/m 0,0 km/h (0 Bft)
10.06.2014 08:26 18,2 C 17,2 C 97 % 1017,3 hPa 0,0 l/m 0 min 0 min 0,0 UV-I 109 W/m 0,0 km/h (0 Bft)
10.06.2014 08:28 18,2 C 17,2 C 97 % 1017,3 hPa 0,0 l/m 0 min 0 min 0,0 UV-I 132 W/m 0,0 km/h (0 Bft)
10.06.2014 08:30 18,3 C 17,2 C 97 % 1017,3 hPa 0,0 l/m 0 min 0 min 0,0 UV-I 142 W/m 0,0 km/h (0 Bft)
10.06.2014 08:32 18,2 C 17,2 C 97 % 1017,2 hPa 0,0 l/m 0 min 0 min 0,0 UV-I 141 W/m 0,0 km/h (0 Bft)
10.06.2014 08:34 18,3 C 17,2 C 97 % 1017,1 hPa 0,0 l/m 0 min 0 min 0,0 UV-I 169 W/m 0,0 km/h (0 Bft)
10.06.2014 08:36 18,4 C 17,2 C 97 % 1017,1 hPa 0,0 l/m 0 min 0 min 0,0 UV-I 116 W/m 0,0 km/h (0 Bft)
10.06.2014 08:38 18,4 C 17,2 C 97 % 1017,1 hPa 0,0 l/m 0 min 0 min 0,0 UV-I 93 W/m 6,3 km/h (2 Bft)
10.06.2014 08:40 18,4 C 17,2 C 97 % 1017,0 hPa 0,0 l/m 0 min 0 min 0,0 UV-I 91 W/m 10,5 km/h (2 Bft)
10.06.2014 08:42 18,4 C 17,2 C 97 % 1016,9 hPa 0,0 l/m 0 min 0 min 0,0 UV-I 95 W/m 8,4 km/h (2 Bft)
10.06.2014 08:44 18,4 C 17,2 C 97 % 1017,0 hPa 0,0 l/m 0 min 0 min 0,0 UV-I 102 W/m 4,2 km/h (1 Bft)
10.06.2014 08:46 18,4 C 17,2 C 97 % 1017,1 hPa 0,0 l/m 0 min 0 min 0,0 UV-I 118 W/m 8,4 km/h (2 Bft)
10.06.2014 08:48 18,4 C 17,2 C 97 % 1017,1 hPa 0,0 l/m 0 min 0 min 0,0 UV-I 134 W/m 6,3 km/h (2 Bft)
10.06.2014 08:50 18,4 C 17,2 C 97 % 1017,0 hPa 0,0 l/m 0 min 0 min 0,0 UV-I 120 W/m 2,1 km/h (1 Bft)
10.06.2014 08:52 18,4 C 17,2 C 97 % 1016,9 hPa 0,0 l/m 0 min 0 min 0,0 UV-I 118 W/m 8,4 km/h (2 Bft)
10.06.2014 08:54 18,4 C 17,2 C 97 % 1017,0 hPa 0,0 l/m 0 min 0 min 0,0 UV-I 113 W/m 2,1 km/h (1 Bft)
10.06.2014 08:56 18,4 C 17,2 C 97 % 1016,9 hPa 0,0 l/m 0 min 0 min 0,0 UV-I 102 W/m 6,3 km/h (2 Bft)
10.06.2014 08:58 18,5 C 17,2 C 97 % 1016,8 hPa 0,0 l/m 0 min 0 min 0,0 UV-I 111 W/m 2,1 km/h (1 Bft)
10.06.2014 09:00 18,5 C 17,2 C 97 % 1016,8 hPa 0,0 l/m 0 min 0 min 0,0 UV-I 128 W/m 0,0 km/h (0 Bft)
10.06.2014 09:02 18,5 C 17,2 C 97 % 1016,8 hPa 0,0 l/m 2 min 0 min 0,0 UV-I 283 W/m 0,0 km/h (0 Bft)
10.06.2014 09:06 18,8 C 17,8 C 97 % 1016,8 hPa 0,0 l/m 2 min 0 min 0,0 UV-I 287 W/m 16,7 km/h (3 Bft)
10.06.2014 09:08 18,9 C 17,8 C 97 % 1016,8 hPa 0,0 l/m 2 min 0 min 0,0 UV-I 373 W/m 12,6 km/h (3 Bft)
10.06.2014 09:10 19,1 C 17,8 C 97 % 1016,9 hPa 0,0 l/m 2 min 0 min 0,0 UV-I 353 W/m 12,6 km/h (3 Bft)
10.06.2014 09:12 19,2 C 17,8 C 97 % 1016,9 hPa 0,0 l/m 0 min 0 min 0,5 UV-I 257 W/m 14,6 km/h (3 Bft)
10.06.2014 09:14 19,4 C 18,3 C 97 % 1016,9 hPa 0,0 l/m 2 min 0 min 0,5 UV-I 446 W/m 14,6 km/h (3 Bft)
10.06.2014 09:16 19,4 C 18,3 C 96 % 1016,9 hPa 0,0 l/m 2 min 0 min 0,6 UV-I 446 W/m 16,7 km/h (3 Bft)
10.06.2014 09:18 19,6 C 18,3 C 96 % 1016,8 hPa 0,0 l/m 2 min 0 min 0,6 UV-I 471 W/m 18,8 km/h (3 Bft)
10.06.2014 09:20 19,8 C 18,9 C 96 % 1016,8 hPa 0,0 l/m 2 min 0 min 0,7 UV-I 550 W/m 10,5 km/h (2 Bft)
10.06.2014 09:22 20,0 C 18,9 C 96 % 1016,7 hPa 0,0 l/m 2 min 0 min 0,7 UV-I 568 W/m 20,9 km/h (4 Bft)
10.06.2014 09:24 20,1 C 18,9 C 95 % 1016,7 hPa 0,0 l/m 2 min 0 min 0,7 UV-I 538 W/m 20,9 km/h (4 Bft)
10.06.2014 09:26 20,1 C 18,9 C 94 % 1016,7 hPa 0,0 l/m 0 min 0 min 0,6 UV-I 244 W/m 20,9 km/h (4 Bft)
10.06.2014 09:28 20,1 C 18,9 C 93 % 1016,7 hPa 0,0 l/m 2 min 0 min 0,6 UV-I 497 W/m 18,8 km/h (3 Bft)
10.06.2014 09:30 20,1 C 18,9 C 93 % 1016,6 hPa 0,0 l/m 2 min 0 min 0,6 UV-I 482 W/m 14,6 km/h (3 Bft)
10.06.2014 09:32 20,1 C 18,9 C 93 % 1016,7 hPa 0,0 l/m 0 min 0 min 0,5 UV-I 227 W/m 18,8 km/h (3 Bft)
10.06.2014 09:34 20,1 C 18,9 C 93 % 1016,8 hPa 0,0 l/m 0 min 0 min 0,5 UV-I 272 W/m 14,6 km/h (3 Bft)
10.06.2014 09:36 20,1 C 18,3 C 93 % 1016,8 hPa 0,0 l/m 0 min 0 min 0,5 UV-I 197 W/m 18,8 km/h (3 Bft)
10.06.2014 09:38 20,0 C 18,3 C 92 % 1016,7 hPa 0,0 l/m 0 min 0 min 0,6 UV-I 281 W/m 23,0 km/h (4 Bft)
10.06.2014 09:40 20,0 C 18,3 C 92 % 1016,7 hPa 0,0 l/m 2 min 0 min 0,6 UV-I 297 W/m 12,6 km/h (3 Bft)
10.06.2014 09:42 20,1 C 18,3 C 93 % 1016,7 hPa 0,0 l/m 2 min 0 min 0,7 UV-I 383 W/m 14,6 km/h (3 Bft)
10.06.2014 09:44 20,2 C 18,9 C 93 % 1016,7 hPa 0,0 l/m 2 min 0 min 0,7 UV-I 434 W/m 18,8 km/h (3 Bft)
10.06.2014 09:46 20,3 C 18,9 C 93 % 1016,7 hPa 0,0 l/m 2 min 0 min 0,7 UV-I 468 W/m 12,6 km/h (3 Bft)
10.06.2014 09:48 20,4 C 18,9 C 93 % 1016,7 hPa 0,0 l/m 2 min 0 min 0,8 UV-I 497 W/m 16,7 km/h (3 Bft)
10.06.2014 09:50 20,7 C 19,4 C 93 % 1016,7 hPa 0,0 l/m 2 min 0 min 0,8 UV-I 490 W/m 18,8 km/h (3 Bft)
10.06.2014 09:52 20,8 C 20,0 C 92 % 1016,8 hPa 0,0 l/m 2 min 0 min 0,8 UV-I 508 W/m 14,6 km/h (3 Bft)
10.06.2014 09:54 21,0 C 20,0 C 92 % 1016,8 hPa 0,0 l/m 2 min 0 min 0,9 UV-I 519 W/m 16,7 km/h (3 Bft)
10.06.2014 09:56 21,1 C 20,0 C 92 % 1016,7 hPa 0,0 l/m 2 min 0 min 0,9 UV-I 522 W/m 12,6 km/h (3 Bft)
10.06.2014 09:58 21,3 C 20,6 C 91 % 1016,7 hPa 0,0 l/m 2 min 0 min 0,9 UV-I 524 W/m 16,7 km/h (3 Bft)
10.06.2014 10:00 21,4 C 20,6 C 91 % 1016,8 hPa 0,0 l/m 2 min 0 min 0,9 UV-I 513 W/m 16,7 km/h (3 Bft)
10.06.2014 10:02 21,4 C 21,1 C 90 % 1016,7 hPa 0,0 l/m 2 min 0 min 0,9 UV-I 520 W/m 16,7 km/h (3 Bft)
10.06.2014 10:06 21,6 C 22,8 C 90 % 1016,7 hPa 0,0 l/m 2 min 0 min 1,0 UV-I 548 W/m 20,9 km/h (4 Bft)
10.06.2014 10:08 21,6 C 22,2 C 89 % 1016,7 hPa 0,0 l/m 2 min 0 min 1,0 UV-I 552 W/m 16,7 km/h (3 Bft)
10.06.2014 10:10 21,8 C 21,7 C 89 % 1016,7 hPa 0,0 l/m 2 min 0 min 1,0 UV-I 557 W/m 12,6 km/h (3 Bft)
10.06.2014 10:12 21,8 C 21,7 C 89 % 1016,7 hPa 0,0 l/m 2 min 0 min 1,0 UV-I 543 W/m 14,6 km/h (3 Bft)
10.06.2014 10:14 21,9 C 21,7 C 89 % 1016,7 hPa 0,0 l/m 2 min 0 min 1,0 UV-I 485 W/m 12,6 km/h (3 Bft)
10.06.2014 10:16 22,0 C 22,2 C 89 % 1016,6 hPa 0,0 l/m 2 min 0 min 1,0 UV-I 503 W/m 16,7 km/h (3 Bft)
10.06.2014 10:18 21,9 C 22,8 C 88 % 1016,6 hPa 0,0 l/m 2 min 0 min 1,1 UV-I 561 W/m 16,7 km/h (3 Bft)
10.06.2014 10:20 21,9 C 23,3 C 87 % 1016,7 hPa 0,0 l/m 2 min 0 min 1,1 UV-I 570 W/m 18,8 km/h (3 Bft)
10.06.2014 10:22 21,9 C 23,3 C 87 % 1016,7 hPa 0,0 l/m 2 min 0 min 1,1 UV-I 580 W/m 20,9 km/h (4 Bft)
10.06.2014 10:24 22,0 C 23,3 C 88 % 1016,8 hPa 0,0 l/m 2 min 0 min 1,1 UV-I 550 W/m 20,9 km/h (4 Bft)
10.06.2014 10:26 22,1 C 22,8 C 88 % 1016,7 hPa 0,0 l/m 2 min 0 min 1,2 UV-I 584 W/m 23,0 km/h (4 Bft)
10.06.2014 10:28 22,2 C 22,8 C 88 % 1016,6 hPa 0,0 l/m 2 min 0 min 1,2 UV-I 589 W/m 14,6 km/h (3 Bft)
10.06.2014 10:30 22,3 C 22,8 C 88 % 1016,6 hPa 0,0 l/m 2 min 0 min 1,2 UV-I 592 W/m 16,7 km/h (3 Bft)
10.06.2014 10:32 22,4 C 22,8 C 88 % 1016,7 hPa 0,0 l/m 2 min 0 min 1,2 UV-I 596 W/m 14,6 km/h (3 Bft)
10.06.2014 10:34 22,6 C 23,3 C 87 % 1016,7 hPa 0,0 l/m 2 min 0 min 1,2 UV-I 605 W/m 23,0 km/h (4 Bft)
10.06.2014 10:36 22,7 C 24,4 C 87 % 1016,6 hPa 0,0 l/m 2 min 0 min 1,2 UV-I 608 W/m 18,8 km/h (3 Bft)
10.06.2014 10:38 22,8 C 24,4 C 86 % 1016,7 hPa 0,0 l/m 2 min 0 min 1,3 UV-I 613 W/m 16,7 km/h (3 Bft)
10.06.2014 10:40 22,9 C 23,9 C 86 % 1016,6 hPa 0,0 l/m 2 min 0 min 1,3 UV-I 615 W/m 18,8 km/h (3 Bft)
10.06.2014 10:42 23,1 C 23,9 C 86 % 1016,6 hPa 0,0 l/m 2 min 0 min 1,3 UV-I 619 W/m 16,7 km/h (3 Bft)
10.06.2014 10:44 23,2 C 23,9 C 85 % 1016,6 hPa 0,0 l/m 2 min 0 min 1,3 UV-I 626 W/m 18,8 km/h (3 Bft)
10.06.2014 10:46 23,2 C 24,4 C 84 % 1016,6 hPa 0,0 l/m 2 min 0 min 1,3 UV-I 629 W/m 18,8 km/h (3 Bft)
10.06.2014 10:48 23,3 C 23,9 C 84 % 1016,7 hPa 0,0 l/m 2 min 0 min 1,4 UV-I 631 W/m 18,8 km/h (3 Bft)
10.06.2014 10:50 23,3 C 24,4 C 83 % 1016,8 hPa 0,0 l/m 2 min 0 min 1,4 UV-I 640 W/m 20,9 km/h (4 Bft)
10.06.2014 10:52 23,3 C 24,4 C 82 % 1016,7 hPa 0,0 l/m 2 min 0 min 1,4 UV-I 640 W/m 23,0 km/h (4 Bft)
10.06.2014 10:54 23,3 C 24,4 C 82 % 1016,7 hPa 0,0 l/m 2 min 0 min 1,4 UV-I 642 W/m 23,0 km/h (4 Bft)
10.06.2014 10:56 23,4 C 25,0 C 82 % 1016,7 hPa 0,0 l/m 2 min 0 min 1,5 UV-I 647 W/m 14,6 km/h (3 Bft)
10.06.2014 10:58 23,6 C 25,0 C 81 % 1016,7 hPa 0,0 l/m 2 min 0 min 1,5 UV-I 652 W/m 23,0 km/h (4 Bft)
10.06.2014 11:00 23,7 C 25,6 C 80 % 1016,7 hPa 0,0 l/m 2 min 0 min 1,5 UV-I 657 W/m 25,1 km/h (4 Bft)
10.06.2014 11:02 23,7 C 26,7 C 82 % 1016,8 hPa 0,0 l/m 2 min 0 min 1,5 UV-I 659 W/m 14,6 km/h (3 Bft)
10.06.2014 11:06 23,9 C 27,8 C 81 % 1016,7 hPa 0,0 l/m 2 min 0 min 1,6 UV-I 664 W/m 20,9 km/h (4 Bft)
10.06.2014 11:08 24,0 C 27,8 C 81 % 1016,7 hPa 0,0 l/m 2 min 0 min 1,6 UV-I 668 W/m 20,9 km/h (4 Bft)
10.06.2014 11:10 24,2 C 27,8 C 82 % 1016,7 hPa 0,0 l/m 2 min 0 min 1,7 UV-I 671 W/m 23,0 km/h (4 Bft)
10.06.2014 11:12 24,3 C 27,8 C 80 % 1016,8 hPa 0,0 l/m 2 min 0 min 2,4 UV-I 677 W/m 23,0 km/h (4 Bft)
10.06.2014 11:14 24,4 C 28,3 C 78 % 1016,8 hPa 0,0 l/m 2 min 0 min 3,1 UV-I 684 W/m 20,9 km/h (4 Bft)
10.06.2014 11:16 24,4 C 27,8 C 77 % 1016,8 hPa 0,0 l/m 2 min 0 min 3,3 UV-I 687 W/m 20,9 km/h (4 Bft)
10.06.2014 11:18 24,4 C 27,8 C 78 % 1016,8 hPa 0,0 l/m 2 min 0 min 3,7 UV-I 693 W/m 16,7 km/h (3 Bft)
10.06.2014 11:20 24,6 C 28,3 C 78 % 1016,7 hPa 0,0 l/m 2 min 0 min 3,7 UV-I 694 W/m 10,5 km/h (2 Bft)
10.06.2014 11:22 24,7 C 28,3 C 77 % 1016,7 hPa 0,0 l/m 2 min 0 min 3,7 UV-I 694 W/m 18,8 km/h (3 Bft)
10.06.2014 11:24 24,8 C 28,3 C 76 % 1016,8 hPa 0,0 l/m 2 min 0 min 3,8 UV-I 698 W/m 16,7 km/h (3 Bft)
10.06.2014 11:26 24,8 C 28,3 C 77 % 1016,8 hPa 0,0 l/m 2 min 0 min 3,8 UV-I 698 W/m 23,0 km/h (4 Bft)
10.06.2014 11:28 24,8 C 28,3 C 77 % 1016,9 hPa 0,0 l/m 2 min 0 min 3,8 UV-I 701 W/m 20,9 km/h (4 Bft)
10.06.2014 11:30 24,9 C 27,8 C 79 % 1016,9 hPa 0,0 l/m 2 min 0 min 3,9 UV-I 703 W/m 14,6 km/h (3 Bft)
10.06.2014 11:32 24,9 C 26,7 C 76 % 1016,9 hPa 0,0 l/m 2 min 0 min 3,9 UV-I 703 W/m 10,5 km/h (2 Bft)
10.06.2014 11:34 25,0 C 26,1 C 76 % 1016,9 hPa 0,0 l/m 2 min 0 min 4,0 UV-I 708 W/m 23,0 km/h (4 Bft)
10.06.2014 11:36 25,1 C 25,6 C 76 % 1016,9 hPa 0,0 l/m 2 min 0 min 4,0 UV-I 712 W/m 16,7 km/h (3 Bft)
10.06.2014 11:38 25,1 C 26,1 C 76 % 1016,9 hPa 0,0 l/m 2 min 0 min 4,1 UV-I 714 W/m 14,6 km/h (3 Bft)
10.06.2014 11:40 25,2 C 27,2 C 75 % 1017,0 hPa 0,0 l/m 2 min 0 min 4,1 UV-I 715 W/m 18,8 km/h (3 Bft)
10.06.2014 11:42 25,3 C 28,9 C 76 % 1017,0 hPa 0,0 l/m 2 min 0 min 4,1 UV-I 712 W/m 12,6 km/h (3 Bft)
10.06.2014 11:44 25,5 C 28,9 C 76 % 1017,1 hPa 0,0 l/m 2 min 0 min 4,1 UV-I 717 W/m 4,2 km/h (1 Bft)
10.06.2014 11:46 25,6 C 28,9 C 76 % 1017,1 hPa 0,0 l/m 2 min 0 min 4,2 UV-I 722 W/m 18,8 km/h (3 Bft)
10.06.2014 11:48 25,6 C 28,9 C 76 % 1017,1 hPa 0,0 l/m 2 min 0 min 4,2 UV-I 721 W/m 27,2 km/h (4 Bft)
10.06.2014 11:50 25,6 C 28,9 C 75 % 1017,2 hPa 0,0 l/m 2 min 0 min 4,6 UV-I 765 W/m 16,7 km/h (3 Bft)
10.06.2014 11:52 25,6 C 28,9 C 73 % 1017,2 hPa 0,0 l/m 2 min 0 min 4,6 UV-I 770 W/m 18,8 km/h (3 Bft)
10.06.2014 11:54 25,6 C 28,9 C 75 % 1017,2 hPa 0,0 l/m 2 min 0 min 4,6 UV-I 768 W/m 16,7 km/h (3 Bft)
10.06.2014 11:56 25,6 C 28,9 C 75 % 1017,2 hPa 0,0 l/m 2 min 0 min 4,7 UV-I 773 W/m 23,0 km/h (4 Bft)
10.06.2014 11:58 25,7 C 29,4 C 75 % 1017,2 hPa 0,0 l/m 2 min 0 min 4,7 UV-I 773 W/m 18,8 km/h (3 Bft)
10.06.2014 12:00 25,8 C 29,4 C 74 % 1017,3 hPa 0,0 l/m 2 min 0 min 4,7 UV-I 775 W/m 20,9 km/h (4 Bft)
10.06.2014 12:02 25,8 C 29,4 C 72 % 1017,3 hPa 0,0 l/m 2 min 0 min 4,8 UV-I 775 W/m 25,1 km/h (4 Bft)
10.06.2014 12:06 26,0 C 30,0 C 74 % 1017,3 hPa 0,0 l/m 2 min 0 min 4,9 UV-I 780 W/m 14,6 km/h (3 Bft)
10.06.2014 12:08 26,1 C 30,0 C 74 % 1017,3 hPa 0,0 l/m 2 min 0 min 4,9 UV-I 777 W/m 8,4 km/h (2 Bft)
10.06.2014 12:10 26,2 C 30,6 C 74 % 1017,3 hPa 0,0 l/m 2 min 0 min 4,8 UV-I 777 W/m 12,6 km/h (3 Bft)
10.06.2014 12:12 26,3 C 30,6 C 75 % 1017,3 hPa 0,0 l/m 2 min 0 min 4,9 UV-I 784 W/m 14,6 km/h (3 Bft)
10.06.2014 12:14 26,4 C 30,6 C 75 % 1017,3 hPa 0,0 l/m 2 min 0 min 5,0 UV-I 789 W/m 12,6 km/h (3 Bft)
10.06.2014 12:16 26,4 C 30,6 C 74 % 1017,3 hPa 0,0 l/m 2 min 0 min 4,9 UV-I 788 W/m 14,6 km/h (3 Bft)
10.06.2014 12:18 26,6 C 30,6 C 76 % 1017,3 hPa 0,0 l/m 2 min 0 min 5,0 UV-I 772 W/m 20,9 km/h (4 Bft)
10.06.2014 12:20 26,7 C 30,6 C 73 % 1017,4 hPa 0,0 l/m 2 min 0 min 5,1 UV-I 772 W/m 27,2 km/h (4 Bft)
10.06.2014 12:22 26,8 C 30,6 C 74 % 1017,3 hPa 0,0 l/m 0 min 0 min 5,0 UV-I 207 W/m 18,8 km/h (3 Bft)
10.06.2014 12:24 26,7 C 30,0 C 72 % 1017,3 hPa 0,0 l/m 0 min 0 min 4,8 UV-I 207 W/m 20,9 km/h (4 Bft)
10.06.2014 12:26 26,7 C 30,0 C 72 % 1017,3 hPa 0,0 l/m 2 min 0 min 4,3 UV-I 831 W/m 18,8 km/h (3 Bft)
10.06.2014 12:28 26,8 C 30,0 C 73 % 1017,3 hPa 0,0 l/m 2 min 0 min 3,4 UV-I 817 W/m 25,1 km/h (4 Bft)
10.06.2014 12:30 26,8 C 30,0 C 73 % 1017,3 hPa 0,0 l/m 2 min 0 min 3,1 UV-I 828 W/m 14,6 km/h (3 Bft)
10.06.2014 12:32 26,9 C 29,4 C 72 % 1017,3 hPa 0,0 l/m 2 min 0 min 3,4 UV-I 696 W/m 14,6 km/h (3 Bft)
10.06.2014 12:34 27,0 C 29,4 C 71 % 1017,3 hPa 0,0 l/m 2 min 0 min 4,7 UV-I 817 W/m 14,6 km/h (3 Bft)
10.06.2014 12:36 27,1 C 30,0 C 72 % 1017,3 hPa 0,0 l/m 2 min 0 min 5,3 UV-I 875 W/m 10,5 km/h (2 Bft)
10.06.2014 12:38 27,4 C 30,0 C 70 % 1017,3 hPa 0,0 l/m 2 min 0 min 5,6 UV-I 904 W/m 25,1 km/h (4 Bft)
10.06.2014 12:40 27,5 C 30,6 C 70 % 1017,3 hPa 0,0 l/m 2 min 0 min 5,5 UV-I 919 W/m 23,0 km/h (4 Bft)
10.06.2014 12:42 27,6 C 30,6 C 67 % 1017,3 hPa 0,0 l/m 2 min 0 min 4,9 UV-I 784 W/m 16,7 km/h (3 Bft)
10.06.2014 12:44 27,4 C 30,0 C 67 % 1017,3 hPa 0,0 l/m 2 min 0 min 4,2 UV-I 606 W/m 10,5 km/h (2 Bft)
10.06.2014 12:46 27,4 C 29,4 C 69 % 1017,2 hPa 0,0 l/m 2 min 0 min 3,1 UV-I 559 W/m 18,8 km/h (3 Bft)
10.06.2014 12:48 27,3 C 28,3 C 68 % 1017,1 hPa 0,0 l/m 0 min 0 min 2,6 UV-I 309 W/m 12,6 km/h (3 Bft)
10.06.2014 12:50 27,2 C 27,8 C 68 % 1017,1 hPa 0,0 l/m 0 min 0 min 2,4 UV-I 239 W/m 12,6 km/h (3 Bft)
10.06.2014 12:52 26,8 C 26,7 C 69 % 1017,1 hPa 0,0 l/m 0 min 0 min 2,5 UV-I 225 W/m 6,3 km/h (2 Bft)
10.06.2014 12:54 26,7 C 26,7 C 72 % 1017,0 hPa 0,0 l/m 0 min 0 min 3,0 UV-I 225 W/m 2,1 km/h (1 Bft)
10.06.2014 12:56 27,0 C 27,8 C 71 % 1017,1 hPa 0,0 l/m 2 min 0 min 5,2 UV-I 882 W/m 10,5 km/h (2 Bft)
10.06.2014 12:58 27,2 C 27,8 C 70 % 1017,0 hPa 0,0 l/m 2 min 0 min 5,6 UV-I 872 W/m 8,4 km/h (2 Bft)
10.06.2014 13:00 27,3 C 27,8 C 66 % 1017,0 hPa 0,0 l/m 2 min 0 min 5,6 UV-I 861 W/m 12,6 km/h (3 Bft)
10.06.2014 13:02 27,5 C 27,8 C 66 % 1017,1 hPa 0,0 l/m 2 min 0 min 5,5 UV-I 849 W/m 10,5 km/h (2 Bft)
10.06.2014 13:06 27,7 C 27,8 C 70 % 1017,0 hPa 0,0 l/m 2 min 0 min 5,5 UV-I 838 W/m 14,6 km/h (3 Bft)
10.06.2014 13:08 27,8 C 28,3 C 67 % 1017,1 hPa 0,0 l/m 2 min 0 min 5,5 UV-I 835 W/m 14,6 km/h (3 Bft)
10.06.2014 13:10 27,8 C 28,9 C 66 % 1017,0 hPa 0,0 l/m 2 min 0 min 5,5 UV-I 831 W/m 10,5 km/h (2 Bft)
10.06.2014 13:12 27,9 C 29,4 C 69 % 1017,0 hPa 0,0 l/m 2 min 0 min 5,5 UV-I 819 W/m 8,4 km/h (2 Bft)
10.06.2014 13:14 28,2 C 30,0 C 68 % 1017,0 hPa 0,0 l/m 2 min 0 min 5,5 UV-I 830 W/m 10,5 km/h (2 Bft)
10.06.2014 13:16 28,3 C 30,0 C 69 % 1017,0 hPa 0,0 l/m 2 min 0 min 5,5 UV-I 830 W/m 12,6 km/h (3 Bft)
10.06.2014 13:18 28,4 C 29,4 C 68 % 1017,0 hPa 0,0 l/m 2 min 0 min 5,5 UV-I 830 W/m 14,6 km/h (3 Bft)
10.06.2014 13:20 28,4 C 28,3 C 64 % 1017,0 hPa 0,0 l/m 2 min 0 min 5,6 UV-I 828 W/m 10,5 km/h (2 Bft)
10.06.2014 13:22 28,4 C 28,3 C 64 % 1017,0 hPa 0,0 l/m 2 min 0 min 5,6 UV-I 830 W/m 14,6 km/h (3 Bft)
10.06.2014 13:24 28,4 C 28,3 C 65 % 1017,1 hPa 0,0 l/m 2 min 0 min 5,5 UV-I 826 W/m 8,4 km/h (2 Bft)
10.06.2014 13:26 28,6 C 28,3 C 67 % 1017,1 hPa 0,0 l/m 2 min 0 min 5,6 UV-I 826 W/m 10,5 km/h (2 Bft)
10.06.2014 13:28 28,7 C 28,3 C 63 % 1017,0 hPa 0,0 l/m 2 min 0 min 5,5 UV-I 823 W/m 4,2 km/h (1 Bft)
10.06.2014 13:30 28,9 C 28,3 C 66 % 1017,1 hPa 0,0 l/m 2 min 0 min 5,6 UV-I 821 W/m 10,5 km/h (2 Bft)
10.06.2014 13:32 29,1 C 28,3 C 63 % 1017,1 hPa 0,0 l/m 2 min 0 min 5,5 UV-I 810 W/m 10,5 km/h (2 Bft)
10.06.2014 13:34 29,2 C 28,3 C 61 % 1017,1 hPa 0,0 l/m 2 min 0 min 5,5 UV-I 810 W/m 6,3 km/h (2 Bft)
10.06.2014 13:36 29,0 C 27,8 C 63 % 1017,1 hPa 0,0 l/m 2 min 0 min 5,5 UV-I 803 W/m 10,5 km/h (2 Bft)
10.06.2014 13:38 28,9 C 27,8 C 65 % 1017,2 hPa 0,0 l/m 2 min 0 min 5,5 UV-I 814 W/m 18,8 km/h (3 Bft)
10.06.2014 13:40 28,9 C 27,8 C 64 % 1017,2 hPa 0,0 l/m 2 min 0 min 5,6 UV-I 816 W/m 14,6 km/h (3 Bft)
10.06.2014 13:42 29,0 C 27,8 C 62 % 1017,1 hPa 0,0 l/m 2 min 0 min 5,5 UV-I 809 W/m 10,5 km/h (2 Bft)
10.06.2014 13:44 29,0 C 27,8 C 65 % 1017,1 hPa 0,0 l/m 2 min 0 min 5,6 UV-I 814 W/m 16,7 km/h (3 Bft)
10.06.2014 13:46 29,1 C 27,8 C 65 % 1017,1 hPa 0,0 l/m 2 min 0 min 5,6 UV-I 809 W/m 12,6 km/h (3 Bft)
10.06.2014 13:48 29,1 C 27,8 C 63 % 1017,1 hPa 0,0 l/m 2 min 0 min 5,6 UV-I 816 W/m 16,7 km/h (3 Bft)
10.06.2014 13:50 28,9 C 27,8 C 64 % 1017,2 hPa 0,0 l/m 2 min 0 min 5,5 UV-I 810 W/m 12,6 km/h (3 Bft)
10.06.2014 13:52 28,9 C 27,8 C 64 % 1017,2 hPa 0,0 l/m 2 min 0 min 5,5 UV-I 809 W/m 12,6 km/h (3 Bft)
10.06.2014 13:54 28,9 C 27,8 C 65 % 1017,2 hPa 0,0 l/m 2 min 0 min 5,5 UV-I 810 W/m 14,6 km/h (3 Bft)
10.06.2014 13:56 28,9 C 27,8 C 64 % 1017,2 hPa 0,0 l/m 2 min 0 min 5,5 UV-I 810 W/m 14,6 km/h (3 Bft)
10.06.2014 13:58 29,0 C 27,8 C 66 % 1017,2 hPa 0,0 l/m 2 min 0 min 5,5 UV-I 810 W/m 14,6 km/h (3 Bft)
10.06.2014 14:00 29,1 C 27,8 C 64 % 1017,2 hPa 0,0 l/m 2 min 0 min 5,5 UV-I 810 W/m 18,8 km/h (3 Bft)
10.06.2014 14:02 29,0 C 27,8 C 66 % 1017,2 hPa 0,0 l/m 2 min 0 min 5,4 UV-I 803 W/m 14,6 km/h (3 Bft)
10.06.2014 14:06 29,1 C 28,9 C 66 % 1017,1 hPa 0,0 l/m 2 min 0 min 5,4 UV-I 788 W/m 14,6 km/h (3 Bft)
10.06.2014 14:08 29,1 C 30,0 C 64 % 1017,2 hPa 0,0 l/m 2 min 0 min 5,3 UV-I 796 W/m 16,7 km/h (3 Bft)
10.06.2014 14:10 28,8 C 29,4 C 64 % 1017,1 hPa 0,0 l/m 2 min 0 min 5,3 UV-I 796 W/m 14,6 km/h (3 Bft)
10.06.2014 14:12 28,7 C 28,9 C 65 % 1017,1 hPa 0,0 l/m 2 min 0 min 5,3 UV-I 793 W/m 10,5 km/h (2 Bft)
10.06.2014 14:14 28,6 C 28,3 C 67 % 1017,1 hPa 0,0 l/m 2 min 0 min 5,2 UV-I 793 W/m 8,4 km/h (2 Bft)
10.06.2014 14:16 28,6 C 28,3 C 67 % 1017,2 hPa 0,0 l/m 2 min 0 min 5,2 UV-I 791 W/m 8,4 km/h (2 Bft)
10.06.2014 14:18 28,8 C 27,8 C 66 % 1017,2 hPa 0,0 l/m 2 min 0 min 5,2 UV-I 784 W/m 0,0 km/h (0 Bft)
10.06.2014 14:20 28,9 C 28,3 C 68 % 1017,2 hPa 0,0 l/m 2 min 0 min 5,2 UV-I 791 W/m 10,5 km/h (2 Bft)
10.06.2014 14:22 29,1 C 28,3 C 65 % 1017,2 hPa 0,0 l/m 2 min 0 min 5,1 UV-I 784 W/m 8,4 km/h (2 Bft)
10.06.2014 14:24 29,3 C 28,3 C 67 % 1017,3 hPa 0,0 l/m 2 min 0 min 5,2 UV-I 793 W/m 12,6 km/h (3 Bft)
10.06.2014 14:26 29,3 C 28,3 C 63 % 1017,2 hPa 0,0 l/m 2 min 0 min 5,2 UV-I 789 W/m 18,8 km/h (3 Bft)
10.06.2014 14:28 29,4 C 28,3 C 63 % 1017,2 hPa 0,0 l/m 2 min 0 min 5,2 UV-I 793 W/m 18,8 km/h (3 Bft)
10.06.2014 14:30 29,4 C 28,3 C 61 % 1017,2 hPa 0,0 l/m 2 min 0 min 5,2 UV-I 789 W/m 18,8 km/h (3 Bft)
10.06.2014 14:32 29,5 C 28,3 C 60 % 1017,2 hPa 0,0 l/m 2 min 0 min 5,2 UV-I 788 W/m 12,6 km/h (3 Bft)
10.06.2014 14:34 29,4 C 28,3 C 58 % 1017,3 hPa 0,0 l/m 2 min 0 min 5,1 UV-I 788 W/m 18,8 km/h (3 Bft)
10.06.2014 14:36 29,4 C 28,3 C 61 % 1017,3 hPa 0,0 l/m 2 min 0 min 5,1 UV-I 782 W/m 10,5 km/h (2 Bft)
10.06.2014 14:38 29,6 C 28,3 C 61 % 1017,3 hPa 0,0 l/m 2 min 0 min 4,9 UV-I 777 W/m 14,6 km/h (3 Bft)
10.06.2014 14:40 29,7 C 28,3 C 61 % 1017,3 hPa 0,0 l/m 2 min 0 min 5,0 UV-I 782 W/m 14,6 km/h (3 Bft)
10.06.2014 14:42 29,6 C 27,8 C 59 % 1017,4 hPa 0,0 l/m 2 min 0 min 5,0 UV-I 775 W/m 14,6 km/h (3 Bft)
10.06.2014 14:44 29,5 C 27,8 C 63 % 1017,4 hPa 0,0 l/m 2 min 0 min 4,9 UV-I 775 W/m 18,8 km/h (3 Bft)
10.06.2014 14:46 29,3 C 27,8 C 58 % 1017,4 hPa 0,0 l/m 2 min 0 min 4,9 UV-I 773 W/m 14,6 km/h (3 Bft)
10.06.2014 14:48 29,3 C 27,8 C 63 % 1017,4 hPa 0,0 l/m 2 min 0 min 4,9 UV-I 770 W/m 16,7 km/h (3 Bft)
10.06.2014 14:50 29,5 C 28,3 C 66 % 1017,4 hPa 0,0 l/m 2 min 0 min 4,8 UV-I 761 W/m 14,6 km/h (3 Bft)
10.06.2014 14:52 29,6 C 28,3 C 60 % 1017,5 hPa 0,0 l/m 2 min 0 min 4,7 UV-I 759 W/m 18,8 km/h (3 Bft)
10.06.2014 14:54 29,5 C 28,3 C 61 % 1017,5 hPa 0,0 l/m 2 min 0 min 4,8 UV-I 765 W/m 12,6 km/h (3 Bft)
10.06.2014 14:56 29,5 C 28,3 C 61 % 1017,5 hPa 0,0 l/m 2 min 0 min 4,7 UV-I 768 W/m 12,6 km/h (3 Bft)
10.06.2014 14:58 29,6 C 28,3 C 61 % 1017,5 hPa 0,0 l/m 2 min 0 min 4,6 UV-I 747 W/m 14,6 km/h (3 Bft)
10.06.2014 15:00 29,6 C 28,3 C 61 % 1017,5 hPa 0,0 l/m 2 min 0 min 4,7 UV-I 756 W/m 12,6 km/h (3 Bft)
10.06.2014 15:02 29,6 C 28,3 C 62 % 1017,6 hPa 0,0 l/m 2 min 0 min 4,5 UV-I 737 W/m 18,8 km/h (3 Bft)
10.06.2014 15:06 29,4 C 27,8 C 61 % 1017,6 hPa 0,0 l/m 2 min 0 min 2,7 UV-I 724 W/m 20,9 km/h (4 Bft)
10.06.2014 15:08 29,2 C 27,8 C 61 % 1017,6 hPa 0,0 l/m 0 min 0 min 3,9 UV-I 357 W/m 18,8 km/h (3 Bft)
10.06.2014 15:10 29,0 C 28,3 C 65 % 1017,7 hPa 0,0 l/m 2 min 0 min 4,8 UV-I 854 W/m 16,7 km/h (3 Bft)
10.06.2014 15:12 29,2 C 28,3 C 63 % 1017,7 hPa 0,0 l/m 2 min 0 min 4,7 UV-I 837 W/m 18,8 km/h (3 Bft)
10.06.2014 15:14 29,3 C 28,3 C 63 % 1017,7 hPa 0,0 l/m 2 min 0 min 4,6 UV-I 788 W/m 18,8 km/h (3 Bft)
10.06.2014 15:16 29,5 C 28,3 C 64 % 1017,8 hPa 0,0 l/m 2 min 0 min 4,6 UV-I 816 W/m 14,6 km/h (3 Bft)
10.06.2014 15:18 29,5 C 28,3 C 61 % 1017,8 hPa 0,0 l/m 2 min 0 min 4,6 UV-I 768 W/m 18,8 km/h (3 Bft)
10.06.2014 15:20 29,6 C 28,9 C 63 % 1017,8 hPa 0,0 l/m 2 min 0 min 4,3 UV-I 793 W/m 14,6 km/h (3 Bft)
10.06.2014 15:22 29,6 C 28,9 C 64 % 1017,9 hPa 0,0 l/m 2 min 0 min 3,8 UV-I 722 W/m 14,6 km/h (3 Bft)
10.06.2014 15:24 29,6 C 28,9 C 61 % 1017,9 hPa 0,0 l/m 0 min 0 min 2,9 UV-I 367 W/m 23,0 km/h (4 Bft)
10.06.2014 15:26 29,4 C 28,9 C 64 % 1018,0 hPa 0,0 l/m 2 min 0 min 4,4 UV-I 925 W/m 16,7 km/h (3 Bft)
10.06.2014 15:28 29,5 C 28,9 C 65 % 1018,0 hPa 0,0 l/m 2 min 0 min 3,4 UV-I 872 W/m 16,7 km/h (3 Bft)
10.06.2014 15:30 29,5 C 28,9 C 62 % 1018,0 hPa 0,0 l/m 2 min 0 min 4,6 UV-I 969 W/m 23,0 km/h (4 Bft)
10.06.2014 15:32 29,6 C 29,4 C 63 % 1018,2 hPa 0,0 l/m 2 min 0 min 3,5 UV-I 777 W/m 18,8 km/h (3 Bft)
10.06.2014 15:34 29,7 C 29,4 C 63 % 1018,1 hPa 0,0 l/m 2 min 0 min 3,3 UV-I 777 W/m 23,0 km/h (4 Bft)
10.06.2014 15:36 29,7 C 29,4 C 61 % 1018,1 hPa 0,0 l/m 2 min 0 min 3,1 UV-I 837 W/m 10,5 km/h (2 Bft)
10.06.2014 15:38 29,6 C 29,4 C 63 % 1018,1 hPa 0,0 l/m 2 min 0 min 3,4 UV-I 837 W/m 23,0 km/h (4 Bft)
10.06.2014 15:40 29,6 C 29,4 C 63 % 1018,2 hPa 0,0 l/m 2 min 0 min 2,9 UV-I 517 W/m 18,8 km/h (3 Bft)
10.06.2014 15:42 29,4 C 29,4 C 62 % 1018,2 hPa 0,0 l/m 2 min 0 min 2,5 UV-I 408 W/m 12,6 km/h (3 Bft)
10.06.2014 15:44 29,3 C 28,9 C 64 % 1018,2 hPa 0,0 l/m 0 min 0 min 2,3 UV-I 353 W/m 12,6 km/h (3 Bft)
10.06.2014 15:46 29,1 C 28,9 C 63 % 1018,2 hPa 0,0 l/m 0 min 0 min 2,3 UV-I 348 W/m 25,1 km/h (4 Bft)
10.06.2014 15:48 28,9 C 28,3 C 64 % 1018,4 hPa 0,0 l/m 0 min 0 min 2,3 UV-I 353 W/m 20,9 km/h (4 Bft)
10.06.2014 15:50 28,7 C 28,3 C 65 % 1018,3 hPa 0,0 l/m 0 min 0 min 2,3 UV-I 364 W/m 20,9 km/h (4 Bft)
10.06.2014 15:52 28,7 C 28,3 C 65 % 1018,4 hPa 0,0 l/m 2 min 0 min 2,5 UV-I 471 W/m 18,8 km/h (3 Bft)
10.06.2014 15:54 28,7 C 28,3 C 65 % 1018,4 hPa 0,0 l/m 2 min 0 min 3,7 UV-I 471 W/m 25,1 km/h (4 Bft)
10.06.2014 15:56 28,8 C 28,9 C 66 % 1018,3 hPa 0,0 l/m 2 min 0 min 4,0 UV-I 828 W/m 23,0 km/h (4 Bft)
10.06.2014 15:58 29,1 C 28,9 C 65 % 1018,3 hPa 0,0 l/m 2 min 0 min 3,8 UV-I 756 W/m 14,6 km/h (3 Bft)
10.06.2014 16:00 29,2 C 29,4 C 63 % 1018,2 hPa 0,0 l/m 2 min 0 min 3,6 UV-I 740 W/m 27,2 km/h (4 Bft)
10.06.2014 16:02 29,3 C 30,0 C 63 % 1018,3 hPa 0,0 l/m 2 min 0 min 3,6 UV-I 715 W/m 23,0 km/h (4 Bft)
10.06.2014 16:06 29,4 C 30,0 C 63 % 1018,2 hPa 0,0 l/m 2 min 0 min 3,5 UV-I 700 W/m 18,8 km/h (3 Bft)
10.06.2014 16:08 29,6 C 31,1 C 63 % 1018,2 hPa 0,0 l/m 2 min 0 min 3,4 UV-I 684 W/m 18,8 km/h (3 Bft)
10.06.2014 16:10 29,7 C 33,9 C 64 % 1018,3 hPa 0,0 l/m 2 min 0 min 3,3 UV-I 663 W/m 18,8 km/h (3 Bft)
10.06.2014 16:12 29,6 C 34,4 C 60 % 1018,3 hPa 0,0 l/m 2 min 0 min 3,3 UV-I 661 W/m 25,1 km/h (4 Bft)
10.06.2014 16:14 29,7 C 35,6 C 61 % 1018,3 hPa 0,0 l/m 2 min 0 min 3,2 UV-I 645 W/m 18,8 km/h (3 Bft)
10.06.2014 16:16 29,7 C 36,7 C 58 % 1018,3 hPa 0,0 l/m 2 min 0 min 3,1 UV-I 633 W/m 27,2 km/h (4 Bft)
10.06.2014 16:18 29,7 C 36,7 C 58 % 1018,4 hPa 0,0 l/m 2 min 0 min 3,1 UV-I 652 W/m 29,3 km/h (5 Bft)
10.06.2014 16:20 29,6 C 36,1 C 59 % 1018,4 hPa 0,0 l/m 2 min 0 min 2,9 UV-I 647 W/m 10,5 km/h (2 Bft)
10.06.2014 16:22 29,5 C 35,0 C 58 % 1018,4 hPa 0,0 l/m 0 min 0 min 2,2 UV-I 274 W/m 23,0 km/h (4 Bft)
10.06.2014 16:24 29,2 C 32,8 C 58 % 1018,4 hPa 0,0 l/m 0 min 0 min 1,8 UV-I 216 W/m 23,0 km/h (4 Bft)
10.06.2014 16:26 28,8 C 31,1 C 61 % 1018,4 hPa 0,0 l/m 0 min 0 min 1,8 UV-I 234 W/m 16,7 km/h (3 Bft)
10.06.2014 16:28 28,4 C 30,6 C 64 % 1018,4 hPa 0,0 l/m 0 min 0 min 1,8 UV-I 343 W/m 18,8 km/h (3 Bft)
10.06.2014 16:30 28,3 C 30,6 C 66 % 1018,5 hPa 0,0 l/m 0 min 0 min 1,6 UV-I 267 W/m 18,8 km/h (3 Bft)
10.06.2014 16:32 28,3 C 30,0 C 66 % 1018,5 hPa 0,0 l/m 0 min 0 min 1,6 UV-I 239 W/m 18,8 km/h (3 Bft)
10.06.2014 16:34 28,2 C 29,4 C 65 % 1018,5 hPa 0,0 l/m 0 min 0 min 2,1 UV-I 260 W/m 20,9 km/h (4 Bft)
10.06.2014 16:36 28,2 C 30,0 C 65 % 1018,5 hPa 0,0 l/m 0 min 0 min 1,5 UV-I 225 W/m 16,7 km/h (3 Bft)
10.06.2014 16:38 28,1 C 28,9 C 64 % 1018,6 hPa 0,0 l/m 0 min 0 min 1,5 UV-I 230 W/m 23,0 km/h (4 Bft)
10.06.2014 16:40 28,1 C 28,9 C 63 % 1018,6 hPa 0,0 l/m 0 min 0 min 1,8 UV-I 272 W/m 23,0 km/h (4 Bft)
10.06.2014 16:42 28,3 C 28,9 C 66 % 1018,7 hPa 0,0 l/m 0 min 0 min 1,5 UV-I 262 W/m 14,6 km/h (3 Bft)
10.06.2014 16:44 28,3 C 28,3 C 65 % 1018,7 hPa 0,0 l/m 0 min 0 min 1,3 UV-I 221 W/m 18,8 km/h (3 Bft)
10.06.2014 16:46 28,2 C 27,8 C 67 % 1018,7 hPa 0,0 l/m 0 min 0 min 0,9 UV-I 190 W/m 35,6 km/h (5 Bft)
10.06.2014 16:48 27,9 C 27,2 C 66 % 1018,8 hPa 0,0 l/m 0 min 0 min 0,9 UV-I 193 W/m 31,4 km/h (5 Bft)
10.06.2014 16:50 27,7 C 27,2 C 66 % 1018,8 hPa 0,0 l/m 0 min 0 min 0,9 UV-I 237 W/m 16,7 km/h (3 Bft)
10.06.2014 16:52 27,7 C 27,2 C 67 % 1018,8 hPa 0,0 l/m 0 min 0 min 1,4 UV-I 288 W/m 14,6 km/h (3 Bft)
10.06.2014 16:54 27,9 C 27,8 C 69 % 1018,8 hPa 0,0 l/m 2 min 0 min 1,7 UV-I 592 W/m 20,9 km/h (4 Bft)
10.06.2014 16:56 28,3 C 28,3 C 67 % 1018,8 hPa 0,0 l/m 2 min 0 min 2,3 UV-I 701 W/m 23,0 km/h (4 Bft)
10.06.2014 16:58 28,6 C 28,9 C 66 % 1018,8 hPa 0,0 l/m 2 min 0 min 2,2 UV-I 691 W/m 31,4 km/h (5 Bft)
10.06.2014 17:00 28,7 C 28,9 C 64 % 1018,8 hPa 0,0 l/m 2 min 0 min 2,1 UV-I 668 W/m 39,7 km/h (6 Bft)
10.06.2014 17:02 28,7 C 28,9 C 63 % 1018,9 hPa 0,0 l/m 2 min 0 min 1,9 UV-I 640 W/m 35,6 km/h (5 Bft)
10.06.2014 17:06 28,6 C 28,3 C 63 % 1019,0 hPa 0,0 l/m 2 min 0 min 1,6 UV-I 570 W/m 46,0 km/h (6 Bft)
10.06.2014 17:08 28,2 C 27,8 C 64 % 1019,0 hPa 0,0 l/m 2 min 0 min 1,4 UV-I 541 W/m 37,7 km/h (5 Bft)
10.06.2014 17:10 27,9 C 27,2 C 65 % 1019,0 hPa 0,0 l/m 2 min 0 min 1,4 UV-I 541 W/m 29,3 km/h (5 Bft)
10.06.2014 17:12 27,9 C 27,2 C 65 % 1018,8 hPa 0,0 l/m 2 min 0 min 1,4 UV-I 575 W/m 29,3 km/h (5 Bft)
10.06.2014 17:14 27,8 C 27,2 C 67 % 1018,9 hPa 0,0 l/m 2 min 0 min 1,4 UV-I 566 W/m 35,6 km/h (5 Bft)
10.06.2014 17:16 27,9 C 27,2 C 65 % 1018,9 hPa 0,0 l/m 2 min 0 min 1,3 UV-I 561 W/m 29,3 km/h (5 Bft)
10.06.2014 17:18 27,8 C 27,2 C 65 % 1018,9 hPa 0,0 l/m 2 min 0 min 1,2 UV-I 568 W/m 33,5 km/h (5 Bft)
10.06.2014 17:20 27,6 C 26,7 C 65 % 1019,0 hPa 0,0 l/m 0 min 0 min 1,1 UV-I 199 W/m 20,9 km/h (4 Bft)
10.06.2014 17:22 27,3 C 26,1 C 65 % 1018,9 hPa 0,0 l/m 0 min 0 min 1,0 UV-I 218 W/m 23,0 km/h (4 Bft)
10.06.2014 17:24 27,1 C 26,1 C 66 % 1019,1 hPa 0,0 l/m 0 min 0 min 1,0 UV-I 295 W/m 27,2 km/h (4 Bft)
10.06.2014 17:26 27,0 C 26,1 C 66 % 1019,1 hPa 0,0 l/m 0 min 0 min 0,9 UV-I 232 W/m 23,0 km/h (4 Bft)
10.06.2014 17:28 27,0 C 26,1 C 68 % 1019,1 hPa 0,0 l/m 2 min 0 min 1,1 UV-I 578 W/m 31,4 km/h (5 Bft)
10.06.2014 17:30 27,1 C 26,7 C 66 % 1019,0 hPa 0,0 l/m 2 min 0 min 1,2 UV-I 610 W/m 27,2 km/h (4 Bft)
10.06.2014 17:32 27,2 C 26,7 C 68 % 1019,1 hPa 0,0 l/m 2 min 0 min 1,3 UV-I 592 W/m 29,3 km/h (5 Bft)
10.06.2014 17:34 27,4 C 27,2 C 65 % 1018,9 hPa 0,0 l/m 2 min 0 min 1,3 UV-I 592 W/m 23,0 km/h (4 Bft)
10.06.2014 17:36 27,4 C 26,7 C 65 % 1019,0 hPa 0,0 l/m 2 min 0 min 1,3 UV-I 585 W/m 27,2 km/h (4 Bft)
10.06.2014 17:38 27,3 C 26,7 C 65 % 1019,1 hPa 0,0 l/m 2 min 0 min 1,3 UV-I 599 W/m 27,2 km/h (4 Bft)
10.06.2014 17:40 27,3 C 26,7 C 65 % 1019,1 hPa 0,0 l/m 2 min 0 min 1,2 UV-I 594 W/m 27,2 km/h (4 Bft)
10.06.2014 17:42 27,3 C 26,7 C 65 % 1019,0 hPa 0,0 l/m 2 min 0 min 1,2 UV-I 580 W/m 20,9 km/h (4 Bft)
10.06.2014 17:44 27,2 C 26,1 C 64 % 1018,9 hPa 0,0 l/m 2 min 0 min 1,2 UV-I 564 W/m 37,7 km/h (5 Bft)
10.06.2014 17:46 27,1 C 26,1 C 64 % 1018,9 hPa 0,0 l/m 2 min 0 min 1,2 UV-I 462 W/m 31,4 km/h (5 Bft)
10.06.2014 17:48 27,2 C 26,1 C 66 % 1018,7 hPa 0,0 l/m 2 min 0 min 1,2 UV-I 570 W/m 20,9 km/h (4 Bft)
10.06.2014 17:50 27,3 C 26,1 C 66 % 1018,7 hPa 0,0 l/m 2 min 0 min 1,2 UV-I 540 W/m 23,0 km/h (4 Bft)
10.06.2014 17:52 27,2 C 26,1 C 66 % 1018,7 hPa 0,0 l/m 2 min 0 min 1,1 UV-I 524 W/m 25,1 km/h (4 Bft)
10.06.2014 17:54 27,1 C 25,6 C 66 % 1018,7 hPa 0,0 l/m 2 min 0 min 1,1 UV-I 510 W/m 20,9 km/h (4 Bft)
10.06.2014 17:56 26,9 C 25,6 C 66 % 1018,8 hPa 0,0 l/m 2 min 0 min 1,0 UV-I 497 W/m 25,1 km/h (4 Bft)
10.06.2014 17:58 26,8 C 25,6 C 65 % 1018,9 hPa 0,0 l/m 2 min 0 min 1,0 UV-I 485 W/m 29,3 km/h (5 Bft)
10.06.2014 18:00 26,7 C 25,6 C 66 % 1018,8 hPa 0,0 l/m 2 min 0 min 1,0 UV-I 483 W/m 23,0 km/h (4 Bft)
10.06.2014 18:02 26,7 C 25,6 C 66 % 1019,0 hPa 0,0 l/m 2 min 0 min 0,9 UV-I 464 W/m 20,9 km/h (4 Bft)
10.06.2014 18:06 26,7 C 25,6 C 67 % 1018,9 hPa 0,0 l/m 2 min 0 min 0,8 UV-I 439 W/m 27,2 km/h (4 Bft)
10.06.2014 18:08 26,7 C 25,0 C 66 % 1018,9 hPa 0,0 l/m 2 min 0 min 0,8 UV-I 424 W/m 27,2 km/h (4 Bft)
10.06.2014 18:10 26,7 C 25,0 C 67 % 1018,8 hPa 0,0 l/m 2 min 0 min 0,7 UV-I 415 W/m 23,0 km/h (4 Bft)
10.06.2014 18:12 26,6 C 25,0 C 66 % 1018,9 hPa 0,0 l/m 2 min 0 min 0,7 UV-I 394 W/m 18,8 km/h (3 Bft)
10.06.2014 18:14 26,4 C 25,0 C 66 % 1018,8 hPa 0,0 l/m 2 min 0 min 0,7 UV-I 381 W/m 23,0 km/h (4 Bft)
10.06.2014 18:16 26,3 C 25,0 C 68 % 1018,9 hPa 0,0 l/m 2 min 0 min 0,7 UV-I 369 W/m 20,9 km/h (4 Bft)
10.06.2014 18:18 26,3 C 25,0 C 69 % 1018,9 hPa 0,0 l/m 2 min 0 min 0,6 UV-I 374 W/m 25,1 km/h (4 Bft)
10.06.2014 18:20 26,3 C 24,4 C 70 % 1018,9 hPa 0,0 l/m 2 min 0 min 0,6 UV-I 380 W/m 27,2 km/h (4 Bft)
10.06.2014 18:22 26,3 C 24,4 C 69 % 1018,9 hPa 0,0 l/m 2 min 0 min 0,6 UV-I 381 W/m 20,9 km/h (4 Bft)
10.06.2014 18:24 26,2 C 24,4 C 70 % 1018,9 hPa 0,0 l/m 2 min 0 min 0,6 UV-I 383 W/m 27,2 km/h (4 Bft)
10.06.2014 18:26 26,1 C 24,4 C 69 % 1018,8 hPa 0,0 l/m 2 min 0 min 0,6 UV-I 373 W/m 20,9 km/h (4 Bft)
10.06.2014 18:28 26,0 C 24,4 C 69 % 1018,9 hPa 0,0 l/m 2 min 0 min 0,5 UV-I 362 W/m 20,9 km/h (4 Bft)
10.06.2014 18:30 25,9 C 24,4 C 70 % 1018,9 hPa 0,0 l/m 2 min 0 min 0,5 UV-I 346 W/m 18,8 km/h (3 Bft)
10.06.2014 18:32 25,8 C 24,4 C 70 % 1019,0 hPa 0,0 l/m 2 min 0 min 0,0 UV-I 343 W/m 20,9 km/h (4 Bft)
10.06.2014 18:34 25,8 C 24,4 C 70 % 1019,0 hPa 0,0 l/m 2 min 0 min 0,0 UV-I 343 W/m 16,7 km/h (3 Bft)
10.06.2014 18:36 25,7 C 23,9 C 70 % 1019,0 hPa 0,0 l/m 2 min 0 min 0,0 UV-I 271 W/m 14,6 km/h (3 Bft)
10.06.2014 18:38 25,7 C 23,9 C 71 % 1019,0 hPa 0,0 l/m 2 min 0 min 0,0 UV-I 329 W/m 16,7 km/h (3 Bft)
10.06.2014 18:40 25,7 C 23,9 C 71 % 1018,9 hPa 0,0 l/m 2 min 0 min 0,0 UV-I 320 W/m 12,6 km/h (3 Bft)
10.06.2014 18:42 25,6 C 23,9 C 70 % 1018,8 hPa 0,0 l/m 2 min 0 min 0,0 UV-I 315 W/m 18,8 km/h (3 Bft)
10.06.2014 18:44 25,5 C 23,9 C 69 % 1018,7 hPa 0,0 l/m 2 min 0 min 0,0 UV-I 311 W/m 14,6 km/h (3 Bft)
10.06.2014 18:46 25,4 C 23,9 C 70 % 1018,7 hPa 0,0 l/m 2 min 0 min 0,0 UV-I 308 W/m 14,6 km/h (3 Bft)
10.06.2014 18:48 25,3 C 23,9 C 70 % 1018,7 hPa 0,0 l/m 2 min 0 min 0,0 UV-I 297 W/m 10,5 km/h (2 Bft)
10.06.2014 18:50 25,3 C 23,9 C 71 % 1018,6 hPa 0,0 l/m 2 min 0 min 0,0 UV-I 290 W/m 14,6 km/h (3 Bft)
10.06.2014 18:52 25,4 C 23,9 C 72 % 1018,7 hPa 0,0 l/m 2 min 0 min 0,0 UV-I 283 W/m 12,6 km/h (3 Bft)
10.06.2014 18:54 25,4 C 23,9 C 72 % 1018,6 hPa 0,0 l/m 2 min 0 min 0,0 UV-I 278 W/m 16,7 km/h (3 Bft)
10.06.2014 18:56 25,4 C 23,9 C 72 % 1018,7 hPa 0,0 l/m 2 min 0 min 0,0 UV-I 274 W/m 18,8 km/h (3 Bft)
10.06.2014 18:58 25,4 C 23,9 C 73 % 1018,9 hPa 0,0 l/m 2 min 0 min 0,0 UV-I 271 W/m 18,8 km/h (3 Bft)
10.06.2014 19:00 25,3 C 23,9 C 73 % 1018,8 hPa 0,0 l/m 2 min 0 min 0,0 UV-I 269 W/m 20,9 km/h (4 Bft)
10.06.2014 19:02 25,3 C 23,9 C 73 % 1018,8 hPa 0,0 l/m 2 min 0 min 0,0 UV-I 264 W/m 14,6 km/h (3 Bft)
10.06.2014 19:06 25,1 C 23,9 C 72 % 1018,6 hPa 0,0 l/m 2 min 0 min 0,0 UV-I 264 W/m 18,8 km/h (3 Bft)
10.06.2014 19:08 25,1 C 23,9 C 73 % 1018,7 hPa 0,0 l/m 2 min 0 min 0,0 UV-I 264 W/m 10,5 km/h (2 Bft)
10.06.2014 19:10 25,1 C 23,9 C 73 % 1018,7 hPa 0,0 l/m 2 min 0 min 0,0 UV-I 227 W/m 14,6 km/h (3 Bft)
10.06.2014 19:12 25,1 C 23,9 C 74 % 1018,7 hPa 0,0 l/m 0 min 0 min 0,0 UV-I 162 W/m 12,6 km/h (3 Bft)
10.06.2014 19:14 25,1 C 23,9 C 75 % 1018,8 hPa 0,0 l/m 0 min 0 min 0,0 UV-I 111 W/m 14,6 km/h (3 Bft)
10.06.2014 19:16 25,1 C 23,9 C 75 % 1018,9 hPa 0,0 l/m 0 min 0 min 0,0 UV-I 165 W/m 10,5 km/h (2 Bft)
10.06.2014 19:18 24,9 C 23,9 C 74 % 1019,0 hPa 0,0 l/m 0 min 0 min 0,0 UV-I 113 W/m 16,7 km/h (3 Bft)
10.06.2014 19:20 24,8 C 23,3 C 74 % 1019,0 hPa 0,0 l/m 2 min 0 min 0,0 UV-I 167 W/m 16,7 km/h (3 Bft)
10.06.2014 19:22 24,8 C 23,3 C 74 % 1019,0 hPa 0,0 l/m 0 min 0 min 0,0 UV-I 128 W/m 12,6 km/h (3 Bft)
10.06.2014 19:24 24,7 C 23,3 C 75 % 1019,0 hPa 0,0 l/m 0 min 0 min 0,0 UV-I 111 W/m 10,5 km/h (2 Bft)
10.06.2014 19:26 24,7 C 23,3 C 75 % 1019,1 hPa 0,0 l/m 0 min 0 min 0,0 UV-I 111 W/m 12,6 km/h (3 Bft)
10.06.2014 19:28 24,7 C 23,3 C 74 % 1019,1 hPa 0,0 l/m 0 min 0 min 0,0 UV-I 100 W/m 12,6 km/h (3 Bft)
10.06.2014 19:30 24,7 C 23,3 C 74 % 1019,0 hPa 0,0 l/m 0 min 0 min 0,0 UV-I 128 W/m 10,5 km/h (2 Bft)
10.06.2014 19:32 24,6 C 23,3 C 73 % 1019,1 hPa 0,0 l/m 2 min 0 min 0,0 UV-I 186 W/m 12,6 km/h (3 Bft)
10.06.2014 19:34 24,6 C 23,3 C 73 % 1019,1 hPa 0,0 l/m 2 min 0 min 0,0 UV-I 193 W/m 12,6 km/h (3 Bft)
10.06.2014 19:36 24,6 C 23,3 C 73 % 1019,2 hPa 0,0 l/m 2 min 0 min 0,0 UV-I 155 W/m 10,5 km/h (2 Bft)
10.06.2014 19:38 24,6 C 23,3 C 73 % 1019,2 hPa 0,0 l/m 2 min 0 min 0,0 UV-I 186 W/m 8,4 km/h (2 Bft)
10.06.2014 19:40 24,7 C 23,3 C 73 % 1019,2 hPa 0,0 l/m 2 min 0 min 0,0 UV-I 158 W/m 8,4 km/h (2 Bft)
10.06.2014 19:42 24,7 C 23,3 C 74 % 1019,1 hPa 0,0 l/m 0 min 0 min 0,0 UV-I 102 W/m 6,3 km/h (2 Bft)
10.06.2014 19:44 24,7 C 23,3 C 74 % 1019,1 hPa 0,0 l/m 0 min 0 min 0,0 UV-I 95 W/m 4,2 km/h (1 Bft)
10.06.2014 19:46 24,7 C 23,3 C 74 % 1019,1 hPa 0,0 l/m 0 min 0 min 0,0 UV-I 98 W/m 6,3 km/h (2 Bft)
10.06.2014 19:48 24,7 C 23,3 C 75 % 1019,2 hPa 0,0 l/m 0 min 0 min 0,0 UV-I 84 W/m 8,4 km/h (2 Bft)
10.06.2014 19:50 24,6 C 23,3 C 76 % 1019,2 hPa 0,0 l/m 0 min 0 min 0,0 UV-I 83 W/m 14,6 km/h (3 Bft)
10.06.2014 19:52 24,6 C 23,3 C 75 % 1019,1 hPa 0,0 l/m 0 min 0 min 0,0 UV-I 79 W/m 10,5 km/h (2 Bft)
10.06.2014 19:54 24,5 C 23,3 C 75 % 1019,2 hPa 0,0 l/m 0 min 0 min 0,0 UV-I 83 W/m 10,5 km/h (2 Bft)
10.06.2014 19:56 24,4 C 23,3 C 76 % 1019,2 hPa 0,0 l/m 0 min 0 min 0,0 UV-I 98 W/m 6,3 km/h (2 Bft)
10.06.2014 19:58 24,4 C 23,3 C 76 % 1019,3 hPa 0,0 l/m 0 min 0 min 0,0 UV-I 102 W/m 10,5 km/h (2 Bft)
10.06.2014 20:00 24,4 C 23,3 C 76 % 1019,2 hPa 0,0 l/m 2 min 0 min 0,0 UV-I 132 W/m 6,3 km/h (2 Bft)
10.06.2014 20:02 24,4 C 23,3 C 77 % 1019,3 hPa 0,0 l/m 2 min 0 min 0,0 UV-I 134 W/m 8,4 km/h (2 Bft)
10.06.2014 20:06 24,4 C 23,3 C 77 % 1019,2 hPa 0,0 l/m 2 min 0 min 0,0 UV-I 121 W/m 12,6 km/h (3 Bft)
10.06.2014 20:08 24,4 C 23,3 C 77 % 1019,2 hPa 0,0 l/m 0 min 0 min 0,0 UV-I 88 W/m 8,4 km/h (2 Bft)
10.06.2014 20:10 24,4 C 23,3 C 77 % 1019,2 hPa 0,0 l/m 0 min 0 min 0,0 UV-I 98 W/m 6,3 km/h (2 Bft)
10.06.2014 20:12 24,4 C 23,3 C 77 % 1019,2 hPa 0,0 l/m 2 min 0 min 0,0 UV-I 109 W/m 8,4 km/h (2 Bft)
10.06.2014 20:14 24,4 C 23,3 C 77 % 1019,2 hPa 0,0 l/m 0 min 0 min 0,0 UV-I 93 W/m 8,4 km/h (2 Bft)
10.06.2014 20:16 24,3 C 22,8 C 77 % 1019,1 hPa 0,0 l/m 0 min 0 min 0,0 UV-I 70 W/m 6,3 km/h (2 Bft)
10.06.2014 20:18 24,3 C 22,8 C 77 % 1019,1 hPa 0,0 l/m 0 min 0 min 0,0 UV-I 65 W/m 10,5 km/h (2 Bft)
10.06.2014 20:20 24,2 C 22,8 C 77 % 1019,1 hPa 0,0 l/m 0 min 0 min 0,0 UV-I 81 W/m 6,3 km/h (2 Bft)
10.06.2014 20:22 24,2 C 22,8 C 77 % 1019,1 hPa 0,0 l/m 0 min 0 min 0,0 UV-I 63 W/m 8,4 km/h (2 Bft)
10.06.2014 20:24 24,2 C 22,8 C 77 % 1019,2 hPa 0,0 l/m 0 min 0 min 0,0 UV-I 54 W/m 6,3 km/h (2 Bft)
10.06.2014 20:26 24,2 C 22,8 C 78 % 1019,2 hPa 0,0 l/m 0 min 0 min 0,0 UV-I 54 W/m 4,2 km/h (1 Bft)
10.06.2014 20:28 24,1 C 22,8 C 78 % 1019,2 hPa 0,0 l/m 0 min 0 min 0,0 UV-I 53 W/m 0,0 km/h (0 Bft)
10.06.2014 20:30 24,1 C 22,8 C 78 % 1019,2 hPa 0,0 l/m 0 min 0 min 0,0 UV-I 49 W/m 0,0 km/h (0 Bft)
10.06.2014 20:32 24,1 C 22,8 C 78 % 1019,3 hPa 0,0 l/m 0 min 0 min 0,0 UV-I 46 W/m 0,0 km/h (0 Bft)
10.06.2014 20:34 24,0 C 22,8 C 79 % 1019,3 hPa 0,0 l/m 0 min 0 min 0,0 UV-I 49 W/m 0,0 km/h (0 Bft)
10.06.2014 20:36 23,9 C 22,8 C 78 % 1019,3 hPa 0,0 l/m 0 min 0 min 0,0 UV-I 51 W/m 2,1 km/h (1 Bft)
10.06.2014 20:38 23,9 C 22,2 C 78 % 1019,4 hPa 0,0 l/m 0 min 0 min 0,0 UV-I 47 W/m 0,0 km/h (0 Bft)
10.06.2014 20:40 23,9 C 22,2 C 78 % 1019,5 hPa 0,0 l/m 0 min 0 min 0,0 UV-I 54 W/m 0,0 km/h (0 Bft)
10.06.2014 20:42 23,9 C 22,2 C 78 % 1019,5 hPa 0,0 l/m 0 min 0 min 0,0 UV-I 51 W/m 0,0 km/h (0 Bft)
10.06.2014 20:44 23,9 C 22,2 C 78 % 1019,5 hPa 0,0 l/m 0 min 0 min 0,0 UV-I 53 W/m 0,0 km/h (0 Bft)
10.06.2014 20:46 23,9 C 22,2 C 78 % 1019,5 hPa 0,0 l/m 0 min 0 min 0,0 UV-I 51 W/m 0,0 km/h (0 Bft)
10.06.2014 20:48 23,9 C 22,2 C 78 % 1019,6 hPa 0,0 l/m 0 min 0 min 0,0 UV-I 51 W/m 2,1 km/h (1 Bft)
10.06.2014 20:50 23,9 C 22,2 C 78 % 1019,6 hPa 0,0 l/m 0 min 0 min 0,0 UV-I 47 W/m 0,0 km/h (0 Bft)
10.06.2014 20:52 23,9 C 22,2 C 78 % 1019,6 hPa 0,0 l/m 0 min 0 min 0,0 UV-I 46 W/m 0,0 km/h (0 Bft)
10.06.2014 20:54 23,9 C 22,2 C 78 % 1019,5 hPa 0,0 l/m 0 min 0 min 0,0 UV-I 46 W/m 0,0 km/h (0 Bft)
10.06.2014 20:56 24,0 C 22,2 C 79 % 1019,6 hPa 0,0 l/m 0 min 0 min 0,0 UV-I 46 W/m 0,0 km/h (0 Bft)
10.06.2014 20:58 24,0 C 22,2 C 78 % 1019,7 hPa 0,0 l/m 0 min 0 min 0,0 UV-I 47 W/m 0,0 km/h (0 Bft)
10.06.2014 21:00 23,9 C 21,7 C 79 % 1019,6 hPa 0,0 l/m 2 min 0 min 0,0 UV-I 46 W/m 0,0 km/h (0 Bft)
10.06.2014 21:02 23,9 C 21,7 C 79 % 1019,6 hPa 0,0 l/m 2 min 0 min 0,0 UV-I 47 W/m 0,0 km/h (0 Bft)
10.06.2014 21:06 23,9 C 22,2 C 78 % 1019,6 hPa 0,0 l/m 2 min 0 min 0,0 UV-I 46 W/m 0,0 km/h (0 Bft)
10.06.2014 21:08 23,9 C 22,2 C 78 % 1019,6 hPa 0,0 l/m 2 min 0 min 0,0 UV-I 44 W/m 0,0 km/h (0 Bft)
10.06.2014 21:10 23,9 C 22,2 C 78 % 1019,6 hPa 0,0 l/m 2 min 0 min 0,0 UV-I 44 W/m 0,0 km/h (0 Bft)
10.06.2014 21:12 23,9 C 22,2 C 79 % 1019,6 hPa 0,0 l/m 2 min 0 min 0,0 UV-I 44 W/m 0,0 km/h (0 Bft)
10.06.2014 21:14 23,8 C 21,7 C 79 % 1019,7 hPa 0,0 l/m 2 min 0 min 0,0 UV-I 42 W/m 0,0 km/h (0 Bft)
10.06.2014 21:16 23,9 C 21,7 C 79 % 1019,7 hPa 0,0 l/m 2 min 0 min 0,0 UV-I 42 W/m 2,1 km/h (1 Bft)
10.06.2014 21:18 23,8 C 21,7 C 80 % 1019,7 hPa 0,0 l/m 2 min 0 min 0,0 UV-I 40 W/m 0,0 km/h (0 Bft)
10.06.2014 21:20 23,8 C 21,7 C 81 % 1019,7 hPa 0,0 l/m 2 min 0 min 0,0 UV-I 39 W/m 0,0 km/h (0 Bft)
10.06.2014 21:22 23,7 C 21,7 C 82 % 1019,8 hPa 0,0 l/m 2 min 0 min 0,0 UV-I 35 W/m 0,0 km/h (0 Bft)
10.06.2014 21:24 23,6 C 21,7 C 82 % 1019,8 hPa 0,0 l/m 2 min 0 min 0,0 UV-I 32 W/m 0,0 km/h (0 Bft)
10.06.2014 21:26 23,6 C 21,7 C 82 % 1019,8 hPa 0,0 l/m 2 min 0 min 0,0 UV-I 26 W/m 6,3 km/h (2 Bft)
10.06.2014 21:28 23,5 C 21,1 C 82 % 1019,8 hPa 0,0 l/m 2 min 0 min 0,0 UV-I 25 W/m 0,0 km/h (0 Bft)
10.06.2014 21:30 23,4 C 21,1 C 82 % 1019,9 hPa 0,0 l/m 2 min 0 min 0,0 UV-I 23 W/m 8,4 km/h (2 Bft)
10.06.2014 21:32 23,4 C 21,1 C 82 % 1019,9 hPa 0,0 l/m 2 min 0 min 0,0 UV-I 19 W/m 10,5 km/h (2 Bft)
10.06.2014 21:34 23,3 C 21,1 C 83 % 1019,9 hPa 0,0 l/m 2 min 0 min 0,0 UV-I 19 W/m 6,3 km/h (2 Bft)
10.06.2014 21:36 23,2 C 21,1 C 83 % 1019,9 hPa 0,0 l/m 0 min 0 min 0,0 UV-I 18 W/m 8,4 km/h (2 Bft)
10.06.2014 21:38 23,2 C 21,1 C 83 % 1019,9 hPa 0,0 l/m 0 min 0 min 0,0 UV-I 16 W/m 8,4 km/h (2 Bft)
10.06.2014 21:40 23,1 C 21,1 C 83 % 1019,9 hPa 0,0 l/m 0 min 0 min 0,0 UV-I 14 W/m 8,4 km/h (2 Bft)
10.06.2014 21:42 23,0 C 20,6 C 84 % 1020,0 hPa 0,0 l/m 0 min 0 min 0,0 UV-I 12 W/m 10,5 km/h (2 Bft)
10.06.2014 21:44 22,9 C 20,6 C 84 % 1020,0 hPa 0,0 l/m 0 min 0 min 0,0 UV-I 11 W/m 10,5 km/h (2 Bft)
10.06.2014 21:46 22,9 C 20,6 C 84 % 1020,0 hPa 0,0 l/m 0 min 0 min 0,0 UV-I 9 W/m 8,4 km/h (2 Bft)
10.06.2014 21:48 22,8 C 20,6 C 84 % 1020,0 hPa 0,0 l/m 0 min 0 min 0,0 UV-I 9 W/m 8,4 km/h (2 Bft)
10.06.2014 21:50 22,8 C 20,6 C 84 % 1020,1 hPa 0,0 l/m 0 min 0 min 0,0 UV-I 7 W/m 8,4 km/h (2 Bft)
10.06.2014 21:52 22,7 C 20,6 C 84 % 1020,2 hPa 0,0 l/m 0 min 0 min 0,0 UV-I 7 W/m 0,0 km/h (0 Bft)
10.06.2014 21:54 22,7 C 20,6 C 84 % 1020,1 hPa 0,0 l/m 0 min 0 min 0,0 UV-I 7 W/m 6,3 km/h (2 Bft)
10.06.2014 21:56 22,7 C 20,6 C 84 % 1020,1 hPa 0,0 l/m 0 min 0 min 0,0 UV-I 7 W/m 8,4 km/h (2 Bft)
10.06.2014 21:58 22,6 C 20,6 C 84 % 1020,2 hPa 0,0 l/m 0 min 0 min 0,0 UV-I 5 W/m 4,2 km/h (1 Bft)
10.06.2014 22:00 22,6 C 20,6 C 84 % 1020,2 hPa 0,0 l/m 0 min 0 min 0,0 UV-I 5 W/m 4,2 km/h (1 Bft)
10.06.2014 22:02 22,5 C 20,0 C 84 % 1020,2 hPa 0,0 l/m 0 min 0 min 0,0 UV-I 5 W/m 2,1 km/h (1 Bft)
10.06.2014 22:06 22,4 C 20,0 C 85 % 1020,4 hPa 0,0 l/m 0 min 0 min 0,0 UV-I 5 W/m 2,1 km/h (1 Bft)
10.06.2014 22:08 22,3 C 20,0 C 85 % 1020,4 hPa 0,0 l/m 0 min 0 min 0,0 UV-I 5 W/m 2,1 km/h (1 Bft)
10.06.2014 22:10 22,3 C 20,0 C 85 % 1020,4 hPa 0,0 l/m 0 min 0 min 0,0 UV-I 0 W/m 0,0 km/h (0 Bft)
10.06.2014 22:12 22,3 C 20,0 C 85 % 1020,4 hPa 0,0 l/m 0 min 0 min 0,0 UV-I 0 W/m 0,0 km/h (0 Bft)
10.06.2014 22:14 22,3 C 20,0 C 85 % 1020,4 hPa 0,0 l/m 0 min 0 min 0,0 UV-I 0 W/m 2,1 km/h (1 Bft)
10.06.2014 22:16 22,2 C 20,0 C 85 % 1020,4 hPa 0,0 l/m 0 min 0 min 0,0 UV-I 0 W/m 6,3 km/h (2 Bft)
10.06.2014 22:18 22,2 C 20,0 C 85 % 1020,4 hPa 0,0 l/m 0 min 0 min 0,0 UV-I 0 W/m 2,1 km/h (1 Bft)
10.06.2014 22:20 22,1 C 20,0 C 85 % 1020,4 hPa 0,0 l/m 0 min 0 min 0,0 UV-I 0 W/m 2,1 km/h (1 Bft)
10.06.2014 22:22 22,1 C 20,0 C 85 % 1020,5 hPa 0,0 l/m 0 min 0 min 0,0 UV-I 0 W/m 2,1 km/h (1 Bft)
10.06.2014 22:24 22,1 C 20,0 C 85 % 1020,5 hPa 0,0 l/m 0 min 0 min 0,0 UV-I 0 W/m 2,1 km/h (1 Bft)
10.06.2014 22:26 22,1 C 20,0 C 85 % 1020,5 hPa 0,0 l/m 0 min 0 min 0,0 UV-I 0 W/m 6,3 km/h (2 Bft)
10.06.2014 22:28 22,1 C 20,0 C 85 % 1020,5 hPa 0,0 l/m 0 min 0 min 0,0 UV-I 0 W/m 10,5 km/h (2 Bft)
10.06.2014 22:30 22,0 C 20,0 C 86 % 1020,5 hPa 0,0 l/m 0 min 0 min 0,0 UV-I 0 W/m 8,4 km/h (2 Bft)
10.06.2014 22:32 21,9 C 20,0 C 86 % 1020,5 hPa 0,0 l/m 0 min 0 min 0,0 UV-I 0 W/m 6,3 km/h (2 Bft)
10.06.2014 22:34 21,9 C 19,4 C 86 % 1020,5 hPa 0,0 l/m 0 min 0 min 0,0 UV-I 0 W/m 8,4 km/h (2 Bft)
10.06.2014 22:36 21,8 C 19,4 C 86 % 1020,6 hPa 0,0 l/m 0 min 0 min 0,0 UV-I 0 W/m 14,6 km/h (3 Bft)
10.06.2014 22:38 21,8 C 20,0 C 86 % 1020,6 hPa 0,0 l/m 0 min 0 min 0,0 UV-I 0 W/m 18,8 km/h (3 Bft)
10.06.2014 22:40 21,8 C 20,0 C 85 % 1020,6 hPa 0,0 l/m 0 min 0 min 0,0 UV-I 0 W/m 14,6 km/h (3 Bft)
10.06.2014 22:42 21,8 C 20,0 C 85 % 1020,6 hPa 0,0 l/m 0 min 0 min 0,0 UV-I 0 W/m 14,6 km/h (3 Bft)
10.06.2014 22:44 21,8 C 20,0 C 84 % 1020,7 hPa 0,0 l/m 0 min 0 min 0,0 UV-I 0 W/m 14,6 km/h (3 Bft)
10.06.2014 22:46 21,7 C 20,0 C 83 % 1020,7 hPa 0,0 l/m 0 min 0 min 0,0 UV-I 0 W/m 16,7 km/h (3 Bft)
10.06.2014 22:48 21,7 C 20,0 C 83 % 1020,7 hPa 0,0 l/m 0 min 0 min 0,0 UV-I 0 W/m 18,8 km/h (3 Bft)
10.06.2014 22:50 21,7 C 20,0 C 83 % 1020,7 hPa 0,0 l/m 0 min 0 min 0,0 UV-I 0 W/m 23,0 km/h (4 Bft)
10.06.2014 22:52 21,7 C 20,0 C 83 % 1020,6 hPa 0,0 l/m 0 min 0 min 0,0 UV-I 0 W/m 16,7 km/h (3 Bft)
10.06.2014 22:54 21,6 C 20,0 C 83 % 1020,6 hPa 0,0 l/m 0 min 0 min 0,0 UV-I 0 W/m 14,6 km/h (3 Bft)
10.06.2014 22:56 21,6 C 20,0 C 83 % 1020,6 hPa 0,0 l/m 0 min 0 min 0,0 UV-I 0 W/m 10,5 km/h (2 Bft)
10.06.2014 22:58 21,5 C 20,0 C 83 % 1020,5 hPa 0,0 l/m 0 min 0 min 0,0 UV-I 0 W/m 20,9 km/h (4 Bft)
10.06.2014 23:00 21,5 C 20,0 C 83 % 1020,6 hPa 0,0 l/m 0 min 0 min 0,0 UV-I 0 W/m 20,9 km/h (4 Bft)
10.06.2014 23:02 21,4 C 20,0 C 83 % 1020,6 hPa 0,0 l/m 0 min 0 min 0,0 UV-I 0 W/m 12,6 km/h (3 Bft)
10.06.2014 23:06 21,3 C 19,4 C 84 % 1020,6 hPa 0,0 l/m 0 min 0 min 0,0 UV-I 0 W/m 14,6 km/h (3 Bft)
10.06.2014 23:08 21,3 C 19,4 C 84 % 1020,6 hPa 0,0 l/m 0 min 0 min 0,0 UV-I 0 W/m 10,5 km/h (2 Bft)
10.06.2014 23:10 21,3 C 19,4 C 84 % 1020,6 hPa 0,0 l/m 0 min 0 min 0,0 UV-I 0 W/m 12,6 km/h (3 Bft)
10.06.2014 23:12 21,2 C 19,4 C 85 % 1020,6 hPa 0,0 l/m 0 min 0 min 0,0 UV-I 0 W/m 10,5 km/h (2 Bft)
10.06.2014 23:14 21,2 C 19,4 C 85 % 1020,7 hPa 0,0 l/m 0 min 0 min 0,0 UV-I 0 W/m 12,6 km/h (3 Bft)
10.06.2014 23:16 21,1 C 19,4 C 85 % 1020,7 hPa 0,0 l/m 0 min 0 min 0,0 UV-I 0 W/m 16,7 km/h (3 Bft)
10.06.2014 23:18 21,1 C 19,4 C 85 % 1020,7 hPa 0,0 l/m 0 min 0 min 0,0 UV-I 0 W/m 14,6 km/h (3 Bft)
10.06.2014 23:20 21,0 C 19,4 C 85 % 1020,7 hPa 0,0 l/m 0 min 0 min 0,0 UV-I 0 W/m 12,6 km/h (3 Bft)
10.06.2014 23:22 21,0 C 19,4 C 85 % 1020,7 hPa 0,0 l/m 0 min 0 min 0,0 UV-I 0 W/m 12,6 km/h (3 Bft)
10.06.2014 23:24 20,9 C 19,4 C 85 % 1020,7 hPa 0,0 l/m 0 min 0 min 0,0 UV-I 0 W/m 14,6 km/h (3 Bft)
10.06.2014 23:26 20,9 C 19,4 C 86 % 1020,7 hPa 0,0 l/m 0 min 0 min 0,0 UV-I 0 W/m 16,7 km/h (3 Bft)
10.06.2014 23:28 20,9 C 19,4 C 86 % 1020,6 hPa 0,0 l/m 0 min 0 min 0,0 UV-I 0 W/m 10,5 km/h (2 Bft)
10.06.2014 23:30 20,8 C 19,4 C 86 % 1020,7 hPa 0,0 l/m 0 min 0 min 0,0 UV-I 0 W/m 6,3 km/h (2 Bft)
10.06.2014 23:32 20,8 C 19,4 C 86 % 1020,8 hPa 0,0 l/m 0 min 0 min 0,0 UV-I 0 W/m 8,4 km/h (2 Bft)
10.06.2014 23:34 20,8 C 18,9 C 86 % 1020,8 hPa 0,0 l/m 0 min 0 min 0,0 UV-I 0 W/m 2,1 km/h (1 Bft)
10.06.2014 23:36 20,7 C 18,9 C 86 % 1020,8 hPa 0,0 l/m 0 min 0 min 0,0 UV-I 0 W/m 6,3 km/h (2 Bft)
10.06.2014 23:38 20,7 C 18,9 C 86 % 1020,8 hPa 0,0 l/m 0 min 0 min 0,0 UV-I 0 W/m 10,5 km/h (2 Bft)
10.06.2014 23:40 20,6 C 18,9 C 86 % 1020,8 hPa 0,0 l/m 0 min 0 min 0,0 UV-I 0 W/m 8,4 km/h (2 Bft)
10.06.2014 23:42 20,6 C 18,9 C 86 % 1020,8 hPa 0,0 l/m 0 min 0 min 0,0 UV-I 0 W/m 10,5 km/h (2 Bft)
10.06.2014 23:44 20,6 C 18,9 C 86 % 1020,9 hPa 0,0 l/m 0 min 0 min 0,0 UV-I 0 W/m 12,6 km/h (3 Bft)
10.06.2014 23:46 20,6 C 18,9 C 86 % 1020,9 hPa 0,0 l/m 0 min 0 min 0,0 UV-I 0 W/m 12,6 km/h (3 Bft)
10.06.2014 23:48 20,5 C 18,9 C 86 % 1021,0 hPa 0,0 l/m 0 min 0 min 0,0 UV-I 0 W/m 8,4 km/h (2 Bft)
10.06.2014 23:50 20,5 C 18,9 C 86 % 1021,0 hPa 0,0 l/m 0 min 0 min 0,0 UV-I 0 W/m 12,6 km/h (3 Bft)
10.06.2014 23:52 20,4 C 18,9 C 86 % 1020,9 hPa 0,0 l/m 0 min 0 min 0,0 UV-I 0 W/m 2,1 km/h (1 Bft)
10.06.2014 23:54 20,4 C 18,9 C 86 % 1020,9 hPa 0,0 l/m 0 min 0 min 0,0 UV-I 0 W/m 8,4 km/h (2 Bft)
10.06.2014 23:56 20,4 C 18,9 C 86 % 1020,9 hPa 0,0 l/m 0 min 0 min 0,0 UV-I 0 W/m 10,5 km/h (2 Bft)
10.06.2014 23:58 20,3 C 18,9 C 86 % 1021,0 hPa 0,0 l/m 0 min 0 min 0,0 UV-I 0 W/m 10,5 km/h (2 Bft)
_ Min-Zeit 03:32 02:56 14:34 03:50 - - - - - 00:22
Minimum _ 16,1 C 14,4 C 58 % 1014,5 hPa - - - - - 0,0 km/h (0 Bft)
_ Max-Zeit 15:36 16:16 03:14 23:48 05:32 07:10 04:46 12:38 15:30 17:06
Maximum _ 29,8 C 36,7 C 98 % 1021,0 hPa 1,2 l/m 2 min 2 min 5,6 UV-I 969 W/m 46,0 km/h
N-NW (6 Bft)
Durchschnitt _ 22,2 C 21,4 C 83 % 1017,6 hPa #4,8 l/m #9:52 h #54 min. 3,0 UV-I 403 W/m 12,3 km/h (3 Bft)
© 2014 W. Hausmann